<?xml version="1.0" encoding="UTF-8" standalone="no" ?>
<gpx xmlns="http://www.topografix.com/GPX/1/1" xmlns:xsi="http://www.w3.org/2001/XMLSchema-instance" xsi:schemaLocation="http://www.topografix.com/GPX/1/1 http://www.topografix.com/GPX/1/1/gpx.xsd" version="1.1" creator="VisuGPX - https://www.visugpx.com">
  <metadata>
    <name>Flexanville</name>
    <desc><![CDATA[Départ à la gare SNCF de la Queue Garanciére, arrivée à la gare SNCF d\'Orgerus Behoust.
Nous passerons par la Vieuvigne, Flexanville, la Poussiniére, le Moutier. Daniel BAIJOT]]></desc>
  </metadata>
  <trk>
    <name><![CDATA[Tracé actuel: 04 FEV 2014 08:41]]></name>
    <trkseg>
      <trkpt lat="48.81036" lon="1.76515">
        <ele>117.42</ele>
        <time>2014-02-04T07:41:25Z</time>
      </trkpt>
      <trkpt lat="48.81046" lon="1.76444">
        <ele>117.9</ele>
        <time>2014-02-04T07:41:36Z</time>
      </trkpt>
      <trkpt lat="48.81043" lon="1.76448">
        <ele>118.38</ele>
        <time>2014-02-04T07:41:44Z</time>
      </trkpt>
      <trkpt lat="48.81044" lon="1.76454">
        <ele>118.86</ele>
        <time>2014-02-04T07:41:46Z</time>
      </trkpt>
      <trkpt lat="48.81038" lon="1.76482">
        <ele>123.19</ele>
        <time>2014-02-04T07:42:00Z</time>
      </trkpt>
      <trkpt lat="48.81028" lon="1.76508">
        <ele>123.19</ele>
        <time>2014-02-04T07:42:17Z</time>
      </trkpt>
      <trkpt lat="48.81024" lon="1.76519">
        <ele>122.71</ele>
        <time>2014-02-04T07:42:25Z</time>
      </trkpt>
      <trkpt lat="48.81018" lon="1.76529">
        <ele>122.22</ele>
        <time>2014-02-04T07:42:32Z</time>
      </trkpt>
      <trkpt lat="48.81003" lon="1.76533">
        <ele>122.71</ele>
        <time>2014-02-04T07:42:45Z</time>
      </trkpt>
      <trkpt lat="48.80999" lon="1.76563">
        <ele>123.19</ele>
        <time>2014-02-04T07:43:02Z</time>
      </trkpt>
      <trkpt lat="48.80989" lon="1.76596">
        <ele>123.67</ele>
        <time>2014-02-04T07:43:18Z</time>
      </trkpt>
      <trkpt lat="48.80985" lon="1.76611">
        <ele>123.67</ele>
        <time>2014-02-04T07:43:28Z</time>
      </trkpt>
      <trkpt lat="48.80985" lon="1.76614">
        <ele>124.15</ele>
        <time>2014-02-04T07:43:30Z</time>
      </trkpt>
      <trkpt lat="48.80988" lon="1.76618">
        <ele>123.67</ele>
        <time>2014-02-04T07:43:33Z</time>
      </trkpt>
      <trkpt lat="48.80994" lon="1.7663">
        <ele>124.15</ele>
        <time>2014-02-04T07:43:38Z</time>
      </trkpt>
      <trkpt lat="48.8101" lon="1.76643">
        <ele>124.15</ele>
        <time>2014-02-04T07:43:52Z</time>
      </trkpt>
      <trkpt lat="48.81024" lon="1.76643">
        <ele>122.71</ele>
        <time>2014-02-04T07:44:03Z</time>
      </trkpt>
      <trkpt lat="48.81041" lon="1.76646">
        <ele>123.19</ele>
        <time>2014-02-04T07:44:17Z</time>
      </trkpt>
      <trkpt lat="48.81042" lon="1.76649">
        <ele>122.71</ele>
        <time>2014-02-04T07:44:25Z</time>
      </trkpt>
      <trkpt lat="48.81042" lon="1.76668">
        <ele>120.78</ele>
        <time>2014-02-04T07:44:36Z</time>
      </trkpt>
      <trkpt lat="48.81035" lon="1.76699">
        <ele>122.22</ele>
        <time>2014-02-04T07:44:52Z</time>
      </trkpt>
      <trkpt lat="48.81033" lon="1.76704">
        <ele>123.19</ele>
        <time>2014-02-04T07:45:11Z</time>
      </trkpt>
      <trkpt lat="48.81028" lon="1.76733">
        <ele>122.71</ele>
        <time>2014-02-04T07:45:26Z</time>
      </trkpt>
      <trkpt lat="48.81023" lon="1.76755">
        <ele>121.74</ele>
        <time>2014-02-04T07:45:39Z</time>
      </trkpt>
      <trkpt lat="48.81023" lon="1.76759">
        <ele>121.26</ele>
        <time>2014-02-04T07:45:41Z</time>
      </trkpt>
      <trkpt lat="48.81015" lon="1.76779">
        <ele>121.26</ele>
        <time>2014-02-04T07:45:51Z</time>
      </trkpt>
      <trkpt lat="48.81011" lon="1.76799">
        <ele>120.78</ele>
        <time>2014-02-04T07:46:00Z</time>
      </trkpt>
      <trkpt lat="48.81009" lon="1.76812">
        <ele>120.3</ele>
        <time>2014-02-04T07:46:08Z</time>
      </trkpt>
      <trkpt lat="48.81004" lon="1.76842">
        <ele>120.3</ele>
        <time>2014-02-04T07:46:22Z</time>
      </trkpt>
      <trkpt lat="48.81" lon="1.76865">
        <ele>119.82</ele>
        <time>2014-02-04T07:46:34Z</time>
      </trkpt>
      <trkpt lat="48.80997" lon="1.7689">
        <ele>117.9</ele>
        <time>2014-02-04T07:46:47Z</time>
      </trkpt>
      <trkpt lat="48.80991" lon="1.76926">
        <ele>118.86</ele>
        <time>2014-02-04T07:47:06Z</time>
      </trkpt>
      <trkpt lat="48.80985" lon="1.76961">
        <ele>118.86</ele>
        <time>2014-02-04T07:47:23Z</time>
      </trkpt>
      <trkpt lat="48.80978" lon="1.76994">
        <ele>118.86</ele>
        <time>2014-02-04T07:47:39Z</time>
      </trkpt>
      <trkpt lat="48.80976" lon="1.77002">
        <ele>118.38</ele>
        <time>2014-02-04T07:47:43Z</time>
      </trkpt>
      <trkpt lat="48.80978" lon="1.77007">
        <ele>117.42</ele>
        <time>2014-02-04T07:47:47Z</time>
      </trkpt>
      <trkpt lat="48.80988" lon="1.7703">
        <ele>115.98</ele>
        <time>2014-02-04T07:47:59Z</time>
      </trkpt>
      <trkpt lat="48.81001" lon="1.77048">
        <ele>115.01</ele>
        <time>2014-02-04T07:48:11Z</time>
      </trkpt>
      <trkpt lat="48.81013" lon="1.77062">
        <ele>116.46</ele>
        <time>2014-02-04T07:48:21Z</time>
      </trkpt>
      <trkpt lat="48.81029" lon="1.77079">
        <ele>116.46</ele>
        <time>2014-02-04T07:48:37Z</time>
      </trkpt>
      <trkpt lat="48.81044" lon="1.77095">
        <ele>115.01</ele>
        <time>2014-02-04T07:48:50Z</time>
      </trkpt>
      <trkpt lat="48.81059" lon="1.77112">
        <ele>113.57</ele>
        <time>2014-02-04T07:49:03Z</time>
      </trkpt>
      <trkpt lat="48.81075" lon="1.7713">
        <ele>113.09</ele>
        <time>2014-02-04T07:49:17Z</time>
      </trkpt>
      <trkpt lat="48.81092" lon="1.77149">
        <ele>112.13</ele>
        <time>2014-02-04T07:49:32Z</time>
      </trkpt>
      <trkpt lat="48.81108" lon="1.77167">
        <ele>112.13</ele>
        <time>2014-02-04T07:49:46Z</time>
      </trkpt>
      <trkpt lat="48.81123" lon="1.77187">
        <ele>111.17</ele>
        <time>2014-02-04T07:50:01Z</time>
      </trkpt>
      <trkpt lat="48.81142" lon="1.77205">
        <ele>108.29</ele>
        <time>2014-02-04T07:50:18Z</time>
      </trkpt>
      <trkpt lat="48.81156" lon="1.77222">
        <ele>107.32</ele>
        <time>2014-02-04T07:50:31Z</time>
      </trkpt>
      <trkpt lat="48.81172" lon="1.77239">
        <ele>107.81</ele>
        <time>2014-02-04T07:50:45Z</time>
      </trkpt>
      <trkpt lat="48.81188" lon="1.77252">
        <ele>106.84</ele>
        <time>2014-02-04T07:50:58Z</time>
      </trkpt>
      <trkpt lat="48.81208" lon="1.77262">
        <ele>106.36</ele>
        <time>2014-02-04T07:51:12Z</time>
      </trkpt>
      <trkpt lat="48.81227" lon="1.77269">
        <ele>107.32</ele>
        <time>2014-02-04T07:51:25Z</time>
      </trkpt>
      <trkpt lat="48.81247" lon="1.77274">
        <ele>105.88</ele>
        <time>2014-02-04T07:51:41Z</time>
      </trkpt>
      <trkpt lat="48.81263" lon="1.77283">
        <ele>105.4</ele>
        <time>2014-02-04T07:51:51Z</time>
      </trkpt>
      <trkpt lat="48.81269" lon="1.77284">
        <ele>105.4</ele>
        <time>2014-02-04T07:51:57Z</time>
      </trkpt>
      <trkpt lat="48.81276" lon="1.77286">
        <ele>104.92</ele>
        <time>2014-02-04T07:52:02Z</time>
      </trkpt>
      <trkpt lat="48.81287" lon="1.77295">
        <ele>104.44</ele>
        <time>2014-02-04T07:52:09Z</time>
      </trkpt>
      <trkpt lat="48.81307" lon="1.77303">
        <ele>103.96</ele>
        <time>2014-02-04T07:52:25Z</time>
      </trkpt>
      <trkpt lat="48.81326" lon="1.77316">
        <ele>104.44</ele>
        <time>2014-02-04T07:52:39Z</time>
      </trkpt>
      <trkpt lat="48.81344" lon="1.77328">
        <ele>103.48</ele>
        <time>2014-02-04T07:52:54Z</time>
      </trkpt>
      <trkpt lat="48.8136" lon="1.77346">
        <ele>103.48</ele>
        <time>2014-02-04T07:53:09Z</time>
      </trkpt>
      <trkpt lat="48.81374" lon="1.77366">
        <ele>103.48</ele>
        <time>2014-02-04T07:53:23Z</time>
      </trkpt>
      <trkpt lat="48.81386" lon="1.7739">
        <ele>102.04</ele>
        <time>2014-02-04T07:53:38Z</time>
      </trkpt>
      <trkpt lat="48.81396" lon="1.77409">
        <ele>102.04</ele>
        <time>2014-02-04T07:53:50Z</time>
      </trkpt>
      <trkpt lat="48.81404" lon="1.7743">
        <ele>102.52</ele>
        <time>2014-02-04T07:54:02Z</time>
      </trkpt>
      <trkpt lat="48.81408" lon="1.77441">
        <ele>101.56</ele>
        <time>2014-02-04T07:54:15Z</time>
      </trkpt>
      <trkpt lat="48.8141" lon="1.77447">
        <ele>101.56</ele>
        <time>2014-02-04T07:54:28Z</time>
      </trkpt>
      <trkpt lat="48.81418" lon="1.77468">
        <ele>102.04</ele>
        <time>2014-02-04T07:54:44Z</time>
      </trkpt>
      <trkpt lat="48.81432" lon="1.77508">
        <ele>102.04</ele>
        <time>2014-02-04T07:55:06Z</time>
      </trkpt>
      <trkpt lat="48.81448" lon="1.77554">
        <ele>100.6</ele>
        <time>2014-02-04T07:55:30Z</time>
      </trkpt>
      <trkpt lat="48.81461" lon="1.77601">
        <ele>100.6</ele>
        <time>2014-02-04T07:55:55Z</time>
      </trkpt>
      <trkpt lat="48.81473" lon="1.77638">
        <ele>100.6</ele>
        <time>2014-02-04T07:56:14Z</time>
      </trkpt>
      <trkpt lat="48.81485" lon="1.77678">
        <ele>100.6</ele>
        <time>2014-02-04T07:56:36Z</time>
      </trkpt>
      <trkpt lat="48.81499" lon="1.77725">
        <ele>101.08</ele>
        <time>2014-02-04T07:57:01Z</time>
      </trkpt>
      <trkpt lat="48.81516" lon="1.77771">
        <ele>101.56</ele>
        <time>2014-02-04T07:57:27Z</time>
      </trkpt>
      <trkpt lat="48.81534" lon="1.7781">
        <ele>101.08</ele>
        <time>2014-02-04T07:57:50Z</time>
      </trkpt>
      <trkpt lat="48.81541" lon="1.77827">
        <ele>102.04</ele>
        <time>2014-02-04T07:58:00Z</time>
      </trkpt>
      <trkpt lat="48.81543" lon="1.77834">
        <ele>102.04</ele>
        <time>2014-02-04T07:58:04Z</time>
      </trkpt>
      <trkpt lat="48.81556" lon="1.7787">
        <ele>102.52</ele>
        <time>2014-02-04T07:58:24Z</time>
      </trkpt>
      <trkpt lat="48.81567" lon="1.77899">
        <ele>102.04</ele>
        <time>2014-02-04T07:58:40Z</time>
      </trkpt>
      <trkpt lat="48.81578" lon="1.77932">
        <ele>103</ele>
        <time>2014-02-04T07:58:59Z</time>
      </trkpt>
      <trkpt lat="48.81593" lon="1.77969">
        <ele>101.56</ele>
        <time>2014-02-04T07:59:21Z</time>
      </trkpt>
      <trkpt lat="48.81607" lon="1.78005">
        <ele>103</ele>
        <time>2014-02-04T07:59:42Z</time>
      </trkpt>
      <trkpt lat="48.8162" lon="1.78045">
        <ele>104.44</ele>
        <time>2014-02-04T08:00:04Z</time>
      </trkpt>
      <trkpt lat="48.81631" lon="1.78073">
        <ele>103</ele>
        <time>2014-02-04T08:00:20Z</time>
      </trkpt>
      <trkpt lat="48.81642" lon="1.78102">
        <ele>100.11</ele>
        <time>2014-02-04T08:00:36Z</time>
      </trkpt>
      <trkpt lat="48.81648" lon="1.78109">
        <ele>100.6</ele>
        <time>2014-02-04T08:00:43Z</time>
      </trkpt>
      <trkpt lat="48.81669" lon="1.78107">
        <ele>101.08</ele>
        <time>2014-02-04T08:00:59Z</time>
      </trkpt>
      <trkpt lat="48.81695" lon="1.78105">
        <ele>96.75</ele>
        <time>2014-02-04T08:01:20Z</time>
      </trkpt>
      <trkpt lat="48.81724" lon="1.78103">
        <ele>100.11</ele>
        <time>2014-02-04T08:01:41Z</time>
      </trkpt>
      <trkpt lat="48.81748" lon="1.78104">
        <ele>100.6</ele>
        <time>2014-02-04T08:01:59Z</time>
      </trkpt>
      <trkpt lat="48.81768" lon="1.781">
        <ele>102.52</ele>
        <time>2014-02-04T08:02:16Z</time>
      </trkpt>
      <trkpt lat="48.81795" lon="1.78096">
        <ele>104.44</ele>
        <time>2014-02-04T08:02:38Z</time>
      </trkpt>
      <trkpt lat="48.81806" lon="1.78095">
        <ele>103.48</ele>
        <time>2014-02-04T08:02:49Z</time>
      </trkpt>
      <trkpt lat="48.81831" lon="1.7809">
        <ele>103</ele>
        <time>2014-02-04T08:03:08Z</time>
      </trkpt>
      <trkpt lat="48.81851" lon="1.78081">
        <ele>100.11</ele>
        <time>2014-02-04T08:03:26Z</time>
      </trkpt>
      <trkpt lat="48.81872" lon="1.78069">
        <ele>96.27</ele>
        <time>2014-02-04T08:03:45Z</time>
      </trkpt>
      <trkpt lat="48.81886" lon="1.78062">
        <ele>95.31</ele>
        <time>2014-02-04T08:03:59Z</time>
      </trkpt>
      <trkpt lat="48.81904" lon="1.78053">
        <ele>97.71</ele>
        <time>2014-02-04T08:04:16Z</time>
      </trkpt>
      <trkpt lat="48.81904" lon="1.78053">
        <ele>99.15</ele>
        <time>2014-02-04T08:04:38Z</time>
      </trkpt>
      <trkpt lat="48.81909" lon="1.78051">
        <ele>99.15</ele>
        <time>2014-02-04T08:05:13Z</time>
      </trkpt>
      <trkpt lat="48.81912" lon="1.78051">
        <ele>99.15</ele>
        <time>2014-02-04T08:05:16Z</time>
      </trkpt>
      <trkpt lat="48.81919" lon="1.7805">
        <ele>99.63</ele>
        <time>2014-02-04T08:05:22Z</time>
      </trkpt>
      <trkpt lat="48.81942" lon="1.78043">
        <ele>100.6</ele>
        <time>2014-02-04T08:05:42Z</time>
      </trkpt>
      <trkpt lat="48.81962" lon="1.78036">
        <ele>103.48</ele>
        <time>2014-02-04T08:06:00Z</time>
      </trkpt>
      <trkpt lat="48.81983" lon="1.78029">
        <ele>104.92</ele>
        <time>2014-02-04T08:06:17Z</time>
      </trkpt>
      <trkpt lat="48.81986" lon="1.78028">
        <ele>104.92</ele>
        <time>2014-02-04T08:06:20Z</time>
      </trkpt>
      <trkpt lat="48.81991" lon="1.78023">
        <ele>104.92</ele>
        <time>2014-02-04T08:06:34Z</time>
      </trkpt>
      <trkpt lat="48.81993" lon="1.78021">
        <ele>105.4</ele>
        <time>2014-02-04T08:06:53Z</time>
      </trkpt>
      <trkpt lat="48.81992" lon="1.78021">
        <ele>104.92</ele>
        <time>2014-02-04T08:07:22Z</time>
      </trkpt>
      <trkpt lat="48.82007" lon="1.78018">
        <ele>106.36</ele>
        <time>2014-02-04T08:07:41Z</time>
      </trkpt>
      <trkpt lat="48.82028" lon="1.78012">
        <ele>109.25</ele>
        <time>2014-02-04T08:07:57Z</time>
      </trkpt>
      <trkpt lat="48.82054" lon="1.78005">
        <ele>108.77</ele>
        <time>2014-02-04T08:08:17Z</time>
      </trkpt>
      <trkpt lat="48.82079" lon="1.77996">
        <ele>108.77</ele>
        <time>2014-02-04T08:08:36Z</time>
      </trkpt>
      <trkpt lat="48.821" lon="1.77991">
        <ele>108.77</ele>
        <time>2014-02-04T08:08:52Z</time>
      </trkpt>
      <trkpt lat="48.82124" lon="1.77989">
        <ele>107.81</ele>
        <time>2014-02-04T08:09:10Z</time>
      </trkpt>
      <trkpt lat="48.82153" lon="1.77976">
        <ele>107.81</ele>
        <time>2014-02-04T08:09:31Z</time>
      </trkpt>
      <trkpt lat="48.82157" lon="1.77974">
        <ele>107.81</ele>
        <time>2014-02-04T08:09:34Z</time>
      </trkpt>
      <trkpt lat="48.82162" lon="1.77972">
        <ele>108.29</ele>
        <time>2014-02-04T08:09:38Z</time>
      </trkpt>
      <trkpt lat="48.82184" lon="1.7796">
        <ele>106.36</ele>
        <time>2014-02-04T08:09:55Z</time>
      </trkpt>
      <trkpt lat="48.82207" lon="1.77943">
        <ele>105.4</ele>
        <time>2014-02-04T08:10:14Z</time>
      </trkpt>
      <trkpt lat="48.82234" lon="1.77927">
        <ele>101.08</ele>
        <time>2014-02-04T08:10:35Z</time>
      </trkpt>
      <trkpt lat="48.82257" lon="1.7791">
        <ele>100.11</ele>
        <time>2014-02-04T08:10:54Z</time>
      </trkpt>
      <trkpt lat="48.82279" lon="1.77896">
        <ele>98.67</ele>
        <time>2014-02-04T08:11:11Z</time>
      </trkpt>
      <trkpt lat="48.82294" lon="1.77883">
        <ele>96.75</ele>
        <time>2014-02-04T08:11:25Z</time>
      </trkpt>
      <trkpt lat="48.82315" lon="1.77867">
        <ele>96.27</ele>
        <time>2014-02-04T08:11:42Z</time>
      </trkpt>
      <trkpt lat="48.82334" lon="1.77855">
        <ele>95.31</ele>
        <time>2014-02-04T08:11:57Z</time>
      </trkpt>
      <trkpt lat="48.82357" lon="1.77844">
        <ele>94.35</ele>
        <time>2014-02-04T08:12:13Z</time>
      </trkpt>
      <trkpt lat="48.8238" lon="1.77831">
        <ele>92.42</ele>
        <time>2014-02-04T08:12:31Z</time>
      </trkpt>
      <trkpt lat="48.82403" lon="1.77821">
        <ele>92.42</ele>
        <time>2014-02-04T08:12:49Z</time>
      </trkpt>
      <trkpt lat="48.82431" lon="1.77815">
        <ele>90.98</ele>
        <time>2014-02-04T08:13:09Z</time>
      </trkpt>
      <trkpt lat="48.82454" lon="1.77814">
        <ele>90.5</ele>
        <time>2014-02-04T08:13:26Z</time>
      </trkpt>
      <trkpt lat="48.82473" lon="1.77819">
        <ele>86.66</ele>
        <time>2014-02-04T08:13:41Z</time>
      </trkpt>
      <trkpt lat="48.82481" lon="1.77822">
        <ele>84.25</ele>
        <time>2014-02-04T08:13:48Z</time>
      </trkpt>
      <trkpt lat="48.82496" lon="1.77813">
        <ele>85.69</ele>
        <time>2014-02-04T08:14:00Z</time>
      </trkpt>
      <trkpt lat="48.82519" lon="1.778">
        <ele>89.06</ele>
        <time>2014-02-04T08:14:20Z</time>
      </trkpt>
      <trkpt lat="48.82541" lon="1.77778">
        <ele>90.02</ele>
        <time>2014-02-04T08:14:39Z</time>
      </trkpt>
      <trkpt lat="48.82556" lon="1.77748">
        <ele>90.5</ele>
        <time>2014-02-04T08:14:58Z</time>
      </trkpt>
      <trkpt lat="48.82568" lon="1.77721">
        <ele>90.98</ele>
        <time>2014-02-04T08:15:14Z</time>
      </trkpt>
      <trkpt lat="48.82578" lon="1.77702">
        <ele>90.5</ele>
        <time>2014-02-04T08:15:26Z</time>
      </trkpt>
      <trkpt lat="48.82592" lon="1.77665">
        <ele>91.94</ele>
        <time>2014-02-04T08:15:47Z</time>
      </trkpt>
      <trkpt lat="48.82609" lon="1.77642">
        <ele>92.9</ele>
        <time>2014-02-04T08:16:04Z</time>
      </trkpt>
      <trkpt lat="48.82628" lon="1.7762">
        <ele>93.87</ele>
        <time>2014-02-04T08:16:22Z</time>
      </trkpt>
      <trkpt lat="48.82646" lon="1.77611">
        <ele>93.87</ele>
        <time>2014-02-04T08:16:37Z</time>
      </trkpt>
      <trkpt lat="48.82662" lon="1.77606">
        <ele>93.39</ele>
        <time>2014-02-04T08:16:51Z</time>
      </trkpt>
      <trkpt lat="48.82684" lon="1.77607">
        <ele>90.5</ele>
        <time>2014-02-04T08:17:10Z</time>
      </trkpt>
      <trkpt lat="48.82708" lon="1.77609">
        <ele>93.87</ele>
        <time>2014-02-04T08:17:28Z</time>
      </trkpt>
      <trkpt lat="48.82732" lon="1.7761">
        <ele>96.27</ele>
        <time>2014-02-04T08:17:46Z</time>
      </trkpt>
      <trkpt lat="48.82761" lon="1.77606">
        <ele>99.15</ele>
        <time>2014-02-04T08:18:08Z</time>
      </trkpt>
      <trkpt lat="48.82785" lon="1.77602">
        <ele>99.15</ele>
        <time>2014-02-04T08:18:27Z</time>
      </trkpt>
      <trkpt lat="48.82811" lon="1.77594">
        <ele>101.56</ele>
        <time>2014-02-04T08:18:47Z</time>
      </trkpt>
      <trkpt lat="48.82839" lon="1.77588">
        <ele>101.56</ele>
        <time>2014-02-04T08:19:08Z</time>
      </trkpt>
      <trkpt lat="48.82859" lon="1.77584">
        <ele>102.52</ele>
        <time>2014-02-04T08:19:25Z</time>
      </trkpt>
      <trkpt lat="48.82885" lon="1.77578">
        <ele>105.4</ele>
        <time>2014-02-04T08:19:44Z</time>
      </trkpt>
      <trkpt lat="48.82908" lon="1.7757">
        <ele>107.32</ele>
        <time>2014-02-04T08:20:02Z</time>
      </trkpt>
      <trkpt lat="48.82926" lon="1.77562">
        <ele>105.4</ele>
        <time>2014-02-04T08:20:17Z</time>
      </trkpt>
      <trkpt lat="48.82927" lon="1.77561">
        <ele>105.4</ele>
        <time>2014-02-04T08:20:18Z</time>
      </trkpt>
      <trkpt lat="48.82931" lon="1.77556">
        <ele>103.96</ele>
        <time>2014-02-04T08:20:33Z</time>
      </trkpt>
      <trkpt lat="48.82932" lon="1.77557">
        <ele>103.48</ele>
        <time>2014-02-04T08:20:57Z</time>
      </trkpt>
      <trkpt lat="48.82944" lon="1.7755">
        <ele>103.48</ele>
        <time>2014-02-04T08:21:14Z</time>
      </trkpt>
      <trkpt lat="48.82963" lon="1.77542">
        <ele>102.52</ele>
        <time>2014-02-04T08:21:30Z</time>
      </trkpt>
      <trkpt lat="48.82984" lon="1.7753">
        <ele>102.52</ele>
        <time>2014-02-04T08:21:48Z</time>
      </trkpt>
      <trkpt lat="48.83008" lon="1.77517">
        <ele>103</ele>
        <time>2014-02-04T08:22:07Z</time>
      </trkpt>
      <trkpt lat="48.83028" lon="1.77502">
        <ele>103.48</ele>
        <time>2014-02-04T08:22:24Z</time>
      </trkpt>
      <trkpt lat="48.83052" lon="1.77489">
        <ele>103</ele>
        <time>2014-02-04T08:22:43Z</time>
      </trkpt>
      <trkpt lat="48.83056" lon="1.77488">
        <ele>102.04</ele>
        <time>2014-02-04T08:23:03Z</time>
      </trkpt>
      <trkpt lat="48.83078" lon="1.77476">
        <ele>101.08</ele>
        <time>2014-02-04T08:23:22Z</time>
      </trkpt>
      <trkpt lat="48.83099" lon="1.77463">
        <ele>102.52</ele>
        <time>2014-02-04T08:23:39Z</time>
      </trkpt>
      <trkpt lat="48.83106" lon="1.7746">
        <ele>103</ele>
        <time>2014-02-04T08:23:44Z</time>
      </trkpt>
      <trkpt lat="48.83116" lon="1.77454">
        <ele>102.04</ele>
        <time>2014-02-04T08:23:57Z</time>
      </trkpt>
      <trkpt lat="48.83122" lon="1.77448">
        <ele>100.11</ele>
        <time>2014-02-04T08:24:22Z</time>
      </trkpt>
      <trkpt lat="48.83143" lon="1.77432">
        <ele>101.08</ele>
        <time>2014-02-04T08:24:40Z</time>
      </trkpt>
      <trkpt lat="48.83163" lon="1.77413">
        <ele>100.6</ele>
        <time>2014-02-04T08:24:58Z</time>
      </trkpt>
      <trkpt lat="48.83181" lon="1.77395">
        <ele>100.6</ele>
        <time>2014-02-04T08:25:14Z</time>
      </trkpt>
      <trkpt lat="48.83202" lon="1.77373">
        <ele>100.6</ele>
        <time>2014-02-04T08:25:33Z</time>
      </trkpt>
      <trkpt lat="48.83213" lon="1.77358">
        <ele>99.63</ele>
        <time>2014-02-04T08:25:44Z</time>
      </trkpt>
      <trkpt lat="48.83226" lon="1.77336">
        <ele>99.63</ele>
        <time>2014-02-04T08:25:58Z</time>
      </trkpt>
      <trkpt lat="48.83242" lon="1.77308">
        <ele>99.15</ele>
        <time>2014-02-04T08:26:16Z</time>
      </trkpt>
      <trkpt lat="48.83251" lon="1.77288">
        <ele>100.11</ele>
        <time>2014-02-04T08:26:28Z</time>
      </trkpt>
      <trkpt lat="48.83255" lon="1.7728">
        <ele>100.11</ele>
        <time>2014-02-04T08:26:46Z</time>
      </trkpt>
      <trkpt lat="48.8326" lon="1.77269">
        <ele>100.6</ele>
        <time>2014-02-04T08:27:02Z</time>
      </trkpt>
      <trkpt lat="48.83266" lon="1.77255">
        <ele>101.56</ele>
        <time>2014-02-04T08:27:20Z</time>
      </trkpt>
      <trkpt lat="48.83277" lon="1.77237">
        <ele>101.08</ele>
        <time>2014-02-04T08:27:36Z</time>
      </trkpt>
      <trkpt lat="48.83295" lon="1.77212">
        <ele>99.63</ele>
        <time>2014-02-04T08:27:54Z</time>
      </trkpt>
      <trkpt lat="48.83315" lon="1.77183">
        <ele>99.63</ele>
        <time>2014-02-04T08:28:15Z</time>
      </trkpt>
      <trkpt lat="48.83315" lon="1.77183">
        <ele>99.63</ele>
        <time>2014-02-04T08:28:42Z</time>
      </trkpt>
      <trkpt lat="48.83324" lon="1.77171">
        <ele>99.63</ele>
        <time>2014-02-04T08:28:54Z</time>
      </trkpt>
      <trkpt lat="48.83339" lon="1.77158">
        <ele>98.67</ele>
        <time>2014-02-04T08:29:08Z</time>
      </trkpt>
      <trkpt lat="48.83358" lon="1.77134">
        <ele>99.15</ele>
        <time>2014-02-04T08:29:26Z</time>
      </trkpt>
      <trkpt lat="48.83365" lon="1.77127">
        <ele>98.67</ele>
        <time>2014-02-04T08:29:32Z</time>
      </trkpt>
      <trkpt lat="48.83382" lon="1.77101">
        <ele>99.15</ele>
        <time>2014-02-04T08:29:50Z</time>
      </trkpt>
      <trkpt lat="48.83401" lon="1.77076">
        <ele>99.15</ele>
        <time>2014-02-04T08:30:08Z</time>
      </trkpt>
      <trkpt lat="48.8342" lon="1.77052">
        <ele>100.11</ele>
        <time>2014-02-04T08:30:27Z</time>
      </trkpt>
      <trkpt lat="48.83438" lon="1.7703">
        <ele>99.63</ele>
        <time>2014-02-04T08:30:43Z</time>
      </trkpt>
      <trkpt lat="48.83456" lon="1.77005">
        <ele>99.63</ele>
        <time>2014-02-04T08:31:01Z</time>
      </trkpt>
      <trkpt lat="48.83463" lon="1.77">
        <ele>99.63</ele>
        <time>2014-02-04T08:31:07Z</time>
      </trkpt>
      <trkpt lat="48.83482" lon="1.76975">
        <ele>99.15</ele>
        <time>2014-02-04T08:31:25Z</time>
      </trkpt>
      <trkpt lat="48.83502" lon="1.76953">
        <ele>98.19</ele>
        <time>2014-02-04T08:31:43Z</time>
      </trkpt>
      <trkpt lat="48.83522" lon="1.76933">
        <ele>99.63</ele>
        <time>2014-02-04T08:32:01Z</time>
      </trkpt>
      <trkpt lat="48.83541" lon="1.76913">
        <ele>100.11</ele>
        <time>2014-02-04T08:32:18Z</time>
      </trkpt>
      <trkpt lat="48.8356" lon="1.76891">
        <ele>99.63</ele>
        <time>2014-02-04T08:32:36Z</time>
      </trkpt>
      <trkpt lat="48.83578" lon="1.76871">
        <ele>98.67</ele>
        <time>2014-02-04T08:32:53Z</time>
      </trkpt>
      <trkpt lat="48.83599" lon="1.76848">
        <ele>99.15</ele>
        <time>2014-02-04T08:33:12Z</time>
      </trkpt>
      <trkpt lat="48.83616" lon="1.76827">
        <ele>99.15</ele>
        <time>2014-02-04T08:33:29Z</time>
      </trkpt>
      <trkpt lat="48.83636" lon="1.7681">
        <ele>98.67</ele>
        <time>2014-02-04T08:33:47Z</time>
      </trkpt>
      <trkpt lat="48.83655" lon="1.76794">
        <ele>100.6</ele>
        <time>2014-02-04T08:34:04Z</time>
      </trkpt>
      <trkpt lat="48.83673" lon="1.76773">
        <ele>100.6</ele>
        <time>2014-02-04T08:34:22Z</time>
      </trkpt>
      <trkpt lat="48.83674" lon="1.76772">
        <ele>100.11</ele>
        <time>2014-02-04T08:34:23Z</time>
      </trkpt>
      <trkpt lat="48.83679" lon="1.76768">
        <ele>99.15</ele>
        <time>2014-02-04T08:34:28Z</time>
      </trkpt>
      <trkpt lat="48.83683" lon="1.76764">
        <ele>98.67</ele>
        <time>2014-02-04T08:34:32Z</time>
      </trkpt>
      <trkpt lat="48.83689" lon="1.76754">
        <ele>98.67</ele>
        <time>2014-02-04T08:34:39Z</time>
      </trkpt>
      <trkpt lat="48.83709" lon="1.76734">
        <ele>99.63</ele>
        <time>2014-02-04T08:34:57Z</time>
      </trkpt>
      <trkpt lat="48.83729" lon="1.76713">
        <ele>99.63</ele>
        <time>2014-02-04T08:35:16Z</time>
      </trkpt>
      <trkpt lat="48.83748" lon="1.76687">
        <ele>101.56</ele>
        <time>2014-02-04T08:35:35Z</time>
      </trkpt>
      <trkpt lat="48.83764" lon="1.7666">
        <ele>101.08</ele>
        <time>2014-02-04T08:35:53Z</time>
      </trkpt>
      <trkpt lat="48.83783" lon="1.76629">
        <ele>104.44</ele>
        <time>2014-02-04T08:36:14Z</time>
      </trkpt>
      <trkpt lat="48.838" lon="1.76599">
        <ele>104.44</ele>
        <time>2014-02-04T08:36:34Z</time>
      </trkpt>
      <trkpt lat="48.8382" lon="1.7657">
        <ele>105.88</ele>
        <time>2014-02-04T08:36:55Z</time>
      </trkpt>
      <trkpt lat="48.83824" lon="1.76565">
        <ele>103</ele>
        <time>2014-02-04T08:37:10Z</time>
      </trkpt>
      <trkpt lat="48.83828" lon="1.7656">
        <ele>101.08</ele>
        <time>2014-02-04T08:37:46Z</time>
      </trkpt>
      <trkpt lat="48.83832" lon="1.76554">
        <ele>101.56</ele>
        <time>2014-02-04T08:38:02Z</time>
      </trkpt>
      <trkpt lat="48.83842" lon="1.76535">
        <ele>103</ele>
        <time>2014-02-04T08:38:27Z</time>
      </trkpt>
      <trkpt lat="48.83855" lon="1.76507">
        <ele>104.92</ele>
        <time>2014-02-04T08:38:44Z</time>
      </trkpt>
      <trkpt lat="48.83875" lon="1.76474">
        <ele>105.88</ele>
        <time>2014-02-04T08:39:05Z</time>
      </trkpt>
      <trkpt lat="48.83883" lon="1.76453">
        <ele>105.88</ele>
        <time>2014-02-04T08:39:21Z</time>
      </trkpt>
      <trkpt lat="48.83885" lon="1.76451">
        <ele>105.88</ele>
        <time>2014-02-04T08:39:44Z</time>
      </trkpt>
      <trkpt lat="48.839" lon="1.76418">
        <ele>105.4</ele>
        <time>2014-02-04T08:40:04Z</time>
      </trkpt>
      <trkpt lat="48.83914" lon="1.76388">
        <ele>106.84</ele>
        <time>2014-02-04T08:40:22Z</time>
      </trkpt>
      <trkpt lat="48.83931" lon="1.76351">
        <ele>106.36</ele>
        <time>2014-02-04T08:40:45Z</time>
      </trkpt>
      <trkpt lat="48.83949" lon="1.76313">
        <ele>106.36</ele>
        <time>2014-02-04T08:41:08Z</time>
      </trkpt>
      <trkpt lat="48.83966" lon="1.76285">
        <ele>103.96</ele>
        <time>2014-02-04T08:41:25Z</time>
      </trkpt>
      <trkpt lat="48.83981" lon="1.76263">
        <ele>104.92</ele>
        <time>2014-02-04T08:41:40Z</time>
      </trkpt>
      <trkpt lat="48.84001" lon="1.76236">
        <ele>105.88</ele>
        <time>2014-02-04T08:41:59Z</time>
      </trkpt>
      <trkpt lat="48.84003" lon="1.76234">
        <ele>105.88</ele>
        <time>2014-02-04T08:42:00Z</time>
      </trkpt>
      <trkpt lat="48.8402" lon="1.76218">
        <ele>106.36</ele>
        <time>2014-02-04T08:42:15Z</time>
      </trkpt>
      <trkpt lat="48.84029" lon="1.76208">
        <ele>106.36</ele>
        <time>2014-02-04T08:42:22Z</time>
      </trkpt>
      <trkpt lat="48.84039" lon="1.76198">
        <ele>106.84</ele>
        <time>2014-02-04T08:42:31Z</time>
      </trkpt>
      <trkpt lat="48.84056" lon="1.76177">
        <ele>107.81</ele>
        <time>2014-02-04T08:42:48Z</time>
      </trkpt>
      <trkpt lat="48.84076" lon="1.76158">
        <ele>109.25</ele>
        <time>2014-02-04T08:43:07Z</time>
      </trkpt>
      <trkpt lat="48.84096" lon="1.76137">
        <ele>110.69</ele>
        <time>2014-02-04T08:43:26Z</time>
      </trkpt>
      <trkpt lat="48.84116" lon="1.76116">
        <ele>111.17</ele>
        <time>2014-02-04T08:43:45Z</time>
      </trkpt>
      <trkpt lat="48.84133" lon="1.76096">
        <ele>112.61</ele>
        <time>2014-02-04T08:44:02Z</time>
      </trkpt>
      <trkpt lat="48.84153" lon="1.76075">
        <ele>112.61</ele>
        <time>2014-02-04T08:44:20Z</time>
      </trkpt>
      <trkpt lat="48.84168" lon="1.76055">
        <ele>114.05</ele>
        <time>2014-02-04T08:44:36Z</time>
      </trkpt>
      <trkpt lat="48.84178" lon="1.76041">
        <ele>115.5</ele>
        <time>2014-02-04T08:44:47Z</time>
      </trkpt>
      <trkpt lat="48.84196" lon="1.76015">
        <ele>114.53</ele>
        <time>2014-02-04T08:45:06Z</time>
      </trkpt>
      <trkpt lat="48.84214" lon="1.7599">
        <ele>115.01</ele>
        <time>2014-02-04T08:45:24Z</time>
      </trkpt>
      <trkpt lat="48.84224" lon="1.75976">
        <ele>114.05</ele>
        <time>2014-02-04T08:45:43Z</time>
      </trkpt>
      <trkpt lat="48.84226" lon="1.75974">
        <ele>115.01</ele>
        <time>2014-02-04T08:46:12Z</time>
      </trkpt>
      <trkpt lat="48.84235" lon="1.7596">
        <ele>114.53</ele>
        <time>2014-02-04T08:46:32Z</time>
      </trkpt>
      <trkpt lat="48.8425" lon="1.75934">
        <ele>115.5</ele>
        <time>2014-02-04T08:46:50Z</time>
      </trkpt>
      <trkpt lat="48.84249" lon="1.75934">
        <ele>114.53</ele>
        <time>2014-02-04T08:47:10Z</time>
      </trkpt>
      <trkpt lat="48.84251" lon="1.75932">
        <ele>115.01</ele>
        <time>2014-02-04T08:47:26Z</time>
      </trkpt>
      <trkpt lat="48.84263" lon="1.75913">
        <ele>115.5</ele>
        <time>2014-02-04T08:47:40Z</time>
      </trkpt>
      <trkpt lat="48.84278" lon="1.75882">
        <ele>116.94</ele>
        <time>2014-02-04T08:47:58Z</time>
      </trkpt>
      <trkpt lat="48.8429" lon="1.75857">
        <ele>116.94</ele>
        <time>2014-02-04T08:48:13Z</time>
      </trkpt>
      <trkpt lat="48.84304" lon="1.7583">
        <ele>115.98</ele>
        <time>2014-02-04T08:48:29Z</time>
      </trkpt>
      <trkpt lat="48.84318" lon="1.75803">
        <ele>116.46</ele>
        <time>2014-02-04T08:48:45Z</time>
      </trkpt>
      <trkpt lat="48.8433" lon="1.75783">
        <ele>115.98</ele>
        <time>2014-02-04T08:48:58Z</time>
      </trkpt>
      <trkpt lat="48.84344" lon="1.75758">
        <ele>115.98</ele>
        <time>2014-02-04T08:49:14Z</time>
      </trkpt>
      <trkpt lat="48.84363" lon="1.75733">
        <ele>115.5</ele>
        <time>2014-02-04T08:49:32Z</time>
      </trkpt>
      <trkpt lat="48.84379" lon="1.75716">
        <ele>114.53</ele>
        <time>2014-02-04T08:49:47Z</time>
      </trkpt>
      <trkpt lat="48.84383" lon="1.75713">
        <ele>114.05</ele>
        <time>2014-02-04T08:49:50Z</time>
      </trkpt>
      <trkpt lat="48.84392" lon="1.75704">
        <ele>114.53</ele>
        <time>2014-02-04T08:49:59Z</time>
      </trkpt>
      <trkpt lat="48.84411" lon="1.75693">
        <ele>113.57</ele>
        <time>2014-02-04T08:50:15Z</time>
      </trkpt>
      <trkpt lat="48.84431" lon="1.75685">
        <ele>112.13</ele>
        <time>2014-02-04T08:50:30Z</time>
      </trkpt>
      <trkpt lat="48.84437" lon="1.75687">
        <ele>111.65</ele>
        <time>2014-02-04T08:50:35Z</time>
      </trkpt>
      <trkpt lat="48.84456" lon="1.75687">
        <ele>112.13</ele>
        <time>2014-02-04T08:50:49Z</time>
      </trkpt>
      <trkpt lat="48.8446" lon="1.75686">
        <ele>112.13</ele>
        <time>2014-02-04T08:50:52Z</time>
      </trkpt>
      <trkpt lat="48.84481" lon="1.75687">
        <ele>112.61</ele>
        <time>2014-02-04T08:51:08Z</time>
      </trkpt>
      <trkpt lat="48.84493" lon="1.75686">
        <ele>111.65</ele>
        <time>2014-02-04T08:51:17Z</time>
      </trkpt>
      <trkpt lat="48.84513" lon="1.7568">
        <ele>114.05</ele>
        <time>2014-02-04T08:51:33Z</time>
      </trkpt>
      <trkpt lat="48.84533" lon="1.75679">
        <ele>115.98</ele>
        <time>2014-02-04T08:51:49Z</time>
      </trkpt>
      <trkpt lat="48.84556" lon="1.7568">
        <ele>116.46</ele>
        <time>2014-02-04T08:52:06Z</time>
      </trkpt>
      <trkpt lat="48.84585" lon="1.75682">
        <ele>116.94</ele>
        <time>2014-02-04T08:52:27Z</time>
      </trkpt>
      <trkpt lat="48.8461" lon="1.75682">
        <ele>117.42</ele>
        <time>2014-02-04T08:52:45Z</time>
      </trkpt>
      <trkpt lat="48.84637" lon="1.75682">
        <ele>117.9</ele>
        <time>2014-02-04T08:53:05Z</time>
      </trkpt>
      <trkpt lat="48.84663" lon="1.75676">
        <ele>117.9</ele>
        <time>2014-02-04T08:53:25Z</time>
      </trkpt>
      <trkpt lat="48.8468" lon="1.75672">
        <ele>118.86</ele>
        <time>2014-02-04T08:53:38Z</time>
      </trkpt>
      <trkpt lat="48.84707" lon="1.75663">
        <ele>117.42</ele>
        <time>2014-02-04T08:53:59Z</time>
      </trkpt>
      <trkpt lat="48.84727" lon="1.75655">
        <ele>116.94</ele>
        <time>2014-02-04T08:54:13Z</time>
      </trkpt>
      <trkpt lat="48.84746" lon="1.75638">
        <ele>117.9</ele>
        <time>2014-02-04T08:54:29Z</time>
      </trkpt>
      <trkpt lat="48.84763" lon="1.75609">
        <ele>118.38</ele>
        <time>2014-02-04T08:54:48Z</time>
      </trkpt>
      <trkpt lat="48.84776" lon="1.75575">
        <ele>117.9</ele>
        <time>2014-02-04T08:55:07Z</time>
      </trkpt>
      <trkpt lat="48.84779" lon="1.75548">
        <ele>120.3</ele>
        <time>2014-02-04T08:55:21Z</time>
      </trkpt>
      <trkpt lat="48.84782" lon="1.75516">
        <ele>120.78</ele>
        <time>2014-02-04T08:55:37Z</time>
      </trkpt>
      <trkpt lat="48.84788" lon="1.75474">
        <ele>119.34</ele>
        <time>2014-02-04T08:55:57Z</time>
      </trkpt>
      <trkpt lat="48.84792" lon="1.75444">
        <ele>120.78</ele>
        <time>2014-02-04T08:56:12Z</time>
      </trkpt>
      <trkpt lat="48.84796" lon="1.75427">
        <ele>119.82</ele>
        <time>2014-02-04T08:56:20Z</time>
      </trkpt>
      <trkpt lat="48.84805" lon="1.75407">
        <ele>120.3</ele>
        <time>2014-02-04T08:56:32Z</time>
      </trkpt>
      <trkpt lat="48.84806" lon="1.75405">
        <ele>119.82</ele>
        <time>2014-02-04T08:56:34Z</time>
      </trkpt>
      <trkpt lat="48.8482" lon="1.75376">
        <ele>120.78</ele>
        <time>2014-02-04T08:56:50Z</time>
      </trkpt>
      <trkpt lat="48.84829" lon="1.75358">
        <ele>119.82</ele>
        <time>2014-02-04T08:57:02Z</time>
      </trkpt>
      <trkpt lat="48.84841" lon="1.75336">
        <ele>119.34</ele>
        <time>2014-02-04T08:57:16Z</time>
      </trkpt>
      <trkpt lat="48.84852" lon="1.75317">
        <ele>119.34</ele>
        <time>2014-02-04T08:57:27Z</time>
      </trkpt>
      <trkpt lat="48.84862" lon="1.753">
        <ele>118.86</ele>
        <time>2014-02-04T08:57:41Z</time>
      </trkpt>
      <trkpt lat="48.84877" lon="1.75277">
        <ele>120.3</ele>
        <time>2014-02-04T08:57:55Z</time>
      </trkpt>
      <trkpt lat="48.84887" lon="1.75262">
        <ele>118.86</ele>
        <time>2014-02-04T08:58:08Z</time>
      </trkpt>
      <trkpt lat="48.84907" lon="1.75244">
        <ele>120.78</ele>
        <time>2014-02-04T08:58:22Z</time>
      </trkpt>
      <trkpt lat="48.84922" lon="1.75231">
        <ele>120.3</ele>
        <time>2014-02-04T08:58:37Z</time>
      </trkpt>
      <trkpt lat="48.84942" lon="1.75223">
        <ele>120.78</ele>
        <time>2014-02-04T08:58:52Z</time>
      </trkpt>
      <trkpt lat="48.84946" lon="1.75222">
        <ele>119.82</ele>
        <time>2014-02-04T08:58:57Z</time>
      </trkpt>
      <trkpt lat="48.84954" lon="1.75221">
        <ele>119.34</ele>
        <time>2014-02-04T08:59:02Z</time>
      </trkpt>
      <trkpt lat="48.84977" lon="1.75228">
        <ele>120.3</ele>
        <time>2014-02-04T08:59:17Z</time>
      </trkpt>
      <trkpt lat="48.84995" lon="1.75232">
        <ele>119.34</ele>
        <time>2014-02-04T08:59:31Z</time>
      </trkpt>
      <trkpt lat="48.85011" lon="1.75234">
        <ele>118.38</ele>
        <time>2014-02-04T08:59:45Z</time>
      </trkpt>
      <trkpt lat="48.85034" lon="1.75245">
        <ele>120.78</ele>
        <time>2014-02-04T09:00:00Z</time>
      </trkpt>
      <trkpt lat="48.85057" lon="1.75248">
        <ele>119.82</ele>
        <time>2014-02-04T09:00:19Z</time>
      </trkpt>
      <trkpt lat="48.85078" lon="1.75246">
        <ele>119.82</ele>
        <time>2014-02-04T09:00:36Z</time>
      </trkpt>
      <trkpt lat="48.85097" lon="1.75232">
        <ele>118.86</ele>
        <time>2014-02-04T09:00:54Z</time>
      </trkpt>
      <trkpt lat="48.85114" lon="1.75219">
        <ele>117.42</ele>
        <time>2014-02-04T09:01:10Z</time>
      </trkpt>
      <trkpt lat="48.8513" lon="1.75204">
        <ele>116.94</ele>
        <time>2014-02-04T09:01:27Z</time>
      </trkpt>
      <trkpt lat="48.85135" lon="1.75196">
        <ele>116.94</ele>
        <time>2014-02-04T09:01:39Z</time>
      </trkpt>
      <trkpt lat="48.85136" lon="1.75195">
        <ele>117.42</ele>
        <time>2014-02-04T09:01:51Z</time>
      </trkpt>
      <trkpt lat="48.8515" lon="1.75172">
        <ele>117.42</ele>
        <time>2014-02-04T09:02:07Z</time>
      </trkpt>
      <trkpt lat="48.85156" lon="1.7515">
        <ele>117.42</ele>
        <time>2014-02-04T09:02:19Z</time>
      </trkpt>
      <trkpt lat="48.85165" lon="1.75123">
        <ele>116.46</ele>
        <time>2014-02-04T09:02:34Z</time>
      </trkpt>
      <trkpt lat="48.85168" lon="1.75103">
        <ele>115.98</ele>
        <time>2014-02-04T09:02:46Z</time>
      </trkpt>
      <trkpt lat="48.8517" lon="1.75098">
        <ele>115.5</ele>
        <time>2014-02-04T09:02:50Z</time>
      </trkpt>
      <trkpt lat="48.8517" lon="1.75067">
        <ele>117.9</ele>
        <time>2014-02-04T09:03:07Z</time>
      </trkpt>
      <trkpt lat="48.85168" lon="1.75038">
        <ele>116.94</ele>
        <time>2014-02-04T09:03:22Z</time>
      </trkpt>
      <trkpt lat="48.85166" lon="1.75012">
        <ele>116.46</ele>
        <time>2014-02-04T09:03:35Z</time>
      </trkpt>
      <trkpt lat="48.85163" lon="1.74989">
        <ele>115.98</ele>
        <time>2014-02-04T09:03:51Z</time>
      </trkpt>
      <trkpt lat="48.85162" lon="1.74988">
        <ele>115.98</ele>
        <time>2014-02-04T09:04:12Z</time>
      </trkpt>
      <trkpt lat="48.85161" lon="1.74976">
        <ele>115.5</ele>
        <time>2014-02-04T09:04:27Z</time>
      </trkpt>
      <trkpt lat="48.85157" lon="1.74949">
        <ele>115.5</ele>
        <time>2014-02-04T09:04:42Z</time>
      </trkpt>
      <trkpt lat="48.85153" lon="1.74928">
        <ele>113.57</ele>
        <time>2014-02-04T09:04:58Z</time>
      </trkpt>
      <trkpt lat="48.85153" lon="1.7493">
        <ele>112.13</ele>
        <time>2014-02-04T09:05:09Z</time>
      </trkpt>
      <trkpt lat="48.85149" lon="1.74913">
        <ele>112.13</ele>
        <time>2014-02-04T09:05:20Z</time>
      </trkpt>
      <trkpt lat="48.85144" lon="1.74894">
        <ele>111.65</ele>
        <time>2014-02-04T09:05:33Z</time>
      </trkpt>
      <trkpt lat="48.85141" lon="1.74888">
        <ele>112.13</ele>
        <time>2014-02-04T09:05:40Z</time>
      </trkpt>
      <trkpt lat="48.8514" lon="1.74884">
        <ele>112.61</ele>
        <time>2014-02-04T09:05:43Z</time>
      </trkpt>
      <trkpt lat="48.85132" lon="1.74866">
        <ele>115.01</ele>
        <time>2014-02-04T09:05:58Z</time>
      </trkpt>
      <trkpt lat="48.85124" lon="1.74857">
        <ele>116.46</ele>
        <time>2014-02-04T09:06:11Z</time>
      </trkpt>
      <trkpt lat="48.85115" lon="1.74842">
        <ele>117.9</ele>
        <time>2014-02-04T09:06:25Z</time>
      </trkpt>
      <trkpt lat="48.85112" lon="1.74837">
        <ele>118.38</ele>
        <time>2014-02-04T09:06:29Z</time>
      </trkpt>
      <trkpt lat="48.85109" lon="1.74834">
        <ele>118.86</ele>
        <time>2014-02-04T09:06:32Z</time>
      </trkpt>
      <trkpt lat="48.85097" lon="1.74822">
        <ele>120.78</ele>
        <time>2014-02-04T09:06:44Z</time>
      </trkpt>
      <trkpt lat="48.85094" lon="1.7482">
        <ele>122.22</ele>
        <time>2014-02-04T09:06:47Z</time>
      </trkpt>
      <trkpt lat="48.85093" lon="1.74817">
        <ele>122.71</ele>
        <time>2014-02-04T09:06:49Z</time>
      </trkpt>
      <trkpt lat="48.85079" lon="1.74799">
        <ele>123.19</ele>
        <time>2014-02-04T09:07:05Z</time>
      </trkpt>
      <trkpt lat="48.85073" lon="1.74786">
        <ele>124.15</ele>
        <time>2014-02-04T09:07:14Z</time>
      </trkpt>
      <trkpt lat="48.85073" lon="1.74781">
        <ele>125.11</ele>
        <time>2014-02-04T09:07:16Z</time>
      </trkpt>
      <trkpt lat="48.85063" lon="1.74767">
        <ele>127.51</ele>
        <time>2014-02-04T09:07:31Z</time>
      </trkpt>
      <trkpt lat="48.85057" lon="1.74751">
        <ele>127.51</ele>
        <time>2014-02-04T09:07:40Z</time>
      </trkpt>
      <trkpt lat="48.8505" lon="1.74728">
        <ele>127.99</ele>
        <time>2014-02-04T09:07:53Z</time>
      </trkpt>
      <trkpt lat="48.8505" lon="1.74722">
        <ele>127.51</ele>
        <time>2014-02-04T09:07:56Z</time>
      </trkpt>
      <trkpt lat="48.85054" lon="1.74701">
        <ele>126.55</ele>
        <time>2014-02-04T09:08:08Z</time>
      </trkpt>
      <trkpt lat="48.8506" lon="1.74678">
        <ele>125.11</ele>
        <time>2014-02-04T09:08:21Z</time>
      </trkpt>
      <trkpt lat="48.85062" lon="1.74664">
        <ele>124.63</ele>
        <time>2014-02-04T09:08:26Z</time>
      </trkpt>
      <trkpt lat="48.85065" lon="1.74655">
        <ele>124.15</ele>
        <time>2014-02-04T09:08:29Z</time>
      </trkpt>
      <trkpt lat="48.8507" lon="1.74644">
        <ele>123.67</ele>
        <time>2014-02-04T09:08:35Z</time>
      </trkpt>
      <trkpt lat="48.85074" lon="1.74636">
        <ele>123.67</ele>
        <time>2014-02-04T09:08:40Z</time>
      </trkpt>
      <trkpt lat="48.85075" lon="1.7463">
        <ele>123.67</ele>
        <time>2014-02-04T09:08:43Z</time>
      </trkpt>
      <trkpt lat="48.85078" lon="1.74625">
        <ele>123.19</ele>
        <time>2014-02-04T09:08:46Z</time>
      </trkpt>
      <trkpt lat="48.85086" lon="1.74614">
        <ele>121.74</ele>
        <time>2014-02-04T09:08:54Z</time>
      </trkpt>
      <trkpt lat="48.85099" lon="1.74604">
        <ele>118.38</ele>
        <time>2014-02-04T09:09:08Z</time>
      </trkpt>
      <trkpt lat="48.85099" lon="1.74602">
        <ele>118.38</ele>
        <time>2014-02-04T09:09:09Z</time>
      </trkpt>
      <trkpt lat="48.85101" lon="1.74596">
        <ele>116.94</ele>
        <time>2014-02-04T09:09:12Z</time>
      </trkpt>
      <trkpt lat="48.85117" lon="1.74578">
        <ele>111.65</ele>
        <time>2014-02-04T09:09:29Z</time>
      </trkpt>
      <trkpt lat="48.85127" lon="1.74569">
        <ele>109.73</ele>
        <time>2014-02-04T09:09:40Z</time>
      </trkpt>
      <trkpt lat="48.85135" lon="1.74563">
        <ele>108.29</ele>
        <time>2014-02-04T09:09:48Z</time>
      </trkpt>
      <trkpt lat="48.85141" lon="1.74558">
        <ele>108.77</ele>
        <time>2014-02-04T09:09:52Z</time>
      </trkpt>
      <trkpt lat="48.85158" lon="1.74537">
        <ele>107.81</ele>
        <time>2014-02-04T09:10:08Z</time>
      </trkpt>
      <trkpt lat="48.85176" lon="1.74513">
        <ele>107.32</ele>
        <time>2014-02-04T09:10:27Z</time>
      </trkpt>
      <trkpt lat="48.8518" lon="1.74508">
        <ele>107.32</ele>
        <time>2014-02-04T09:10:40Z</time>
      </trkpt>
      <trkpt lat="48.85192" lon="1.7449">
        <ele>108.77</ele>
        <time>2014-02-04T09:10:55Z</time>
      </trkpt>
      <trkpt lat="48.85198" lon="1.7448">
        <ele>108.77</ele>
        <time>2014-02-04T09:11:10Z</time>
      </trkpt>
      <trkpt lat="48.85206" lon="1.74461">
        <ele>107.32</ele>
        <time>2014-02-04T09:11:27Z</time>
      </trkpt>
      <trkpt lat="48.85217" lon="1.74437">
        <ele>106.36</ele>
        <time>2014-02-04T09:11:41Z</time>
      </trkpt>
      <trkpt lat="48.85226" lon="1.74406">
        <ele>106.36</ele>
        <time>2014-02-04T09:11:58Z</time>
      </trkpt>
      <trkpt lat="48.85227" lon="1.74396">
        <ele>107.32</ele>
        <time>2014-02-04T09:12:03Z</time>
      </trkpt>
      <trkpt lat="48.85232" lon="1.74364">
        <ele>110.69</ele>
        <time>2014-02-04T09:12:19Z</time>
      </trkpt>
      <trkpt lat="48.85242" lon="1.74327">
        <ele>112.13</ele>
        <time>2014-02-04T09:12:38Z</time>
      </trkpt>
      <trkpt lat="48.85253" lon="1.74295">
        <ele>113.09</ele>
        <time>2014-02-04T09:12:56Z</time>
      </trkpt>
      <trkpt lat="48.85261" lon="1.7427">
        <ele>112.61</ele>
        <time>2014-02-04T09:13:10Z</time>
      </trkpt>
      <trkpt lat="48.85267" lon="1.74257">
        <ele>112.61</ele>
        <time>2014-02-04T09:13:17Z</time>
      </trkpt>
      <trkpt lat="48.85272" lon="1.74244">
        <ele>112.61</ele>
        <time>2014-02-04T09:13:32Z</time>
      </trkpt>
      <trkpt lat="48.85276" lon="1.74234">
        <ele>113.09</ele>
        <time>2014-02-04T09:14:01Z</time>
      </trkpt>
      <trkpt lat="48.85282" lon="1.74217">
        <ele>114.53</ele>
        <time>2014-02-04T09:14:14Z</time>
      </trkpt>
      <trkpt lat="48.85283" lon="1.74212">
        <ele>115.01</ele>
        <time>2014-02-04T09:14:30Z</time>
      </trkpt>
      <trkpt lat="48.85299" lon="1.74173">
        <ele>115.01</ele>
        <time>2014-02-04T09:14:52Z</time>
      </trkpt>
      <trkpt lat="48.85307" lon="1.7415">
        <ele>115.01</ele>
        <time>2014-02-04T09:15:05Z</time>
      </trkpt>
      <trkpt lat="48.8532" lon="1.74122">
        <ele>115.01</ele>
        <time>2014-02-04T09:15:22Z</time>
      </trkpt>
      <trkpt lat="48.85322" lon="1.74116">
        <ele>115.01</ele>
        <time>2014-02-04T09:15:25Z</time>
      </trkpt>
      <trkpt lat="48.85324" lon="1.74108">
        <ele>114.53</ele>
        <time>2014-02-04T09:15:29Z</time>
      </trkpt>
      <trkpt lat="48.85337" lon="1.74075">
        <ele>115.01</ele>
        <time>2014-02-04T09:15:48Z</time>
      </trkpt>
      <trkpt lat="48.8535" lon="1.74037">
        <ele>115.5</ele>
        <time>2014-02-04T09:16:09Z</time>
      </trkpt>
      <trkpt lat="48.8536" lon="1.74002">
        <ele>114.05</ele>
        <time>2014-02-04T09:16:28Z</time>
      </trkpt>
      <trkpt lat="48.85366" lon="1.73976">
        <ele>113.57</ele>
        <time>2014-02-04T09:16:42Z</time>
      </trkpt>
      <trkpt lat="48.8537" lon="1.73943">
        <ele>113.09</ele>
        <time>2014-02-04T09:16:59Z</time>
      </trkpt>
      <trkpt lat="48.85368" lon="1.7392">
        <ele>115.01</ele>
        <time>2014-02-04T09:17:11Z</time>
      </trkpt>
      <trkpt lat="48.85366" lon="1.73895">
        <ele>116.46</ele>
        <time>2014-02-04T09:17:23Z</time>
      </trkpt>
      <trkpt lat="48.85364" lon="1.73863">
        <ele>118.86</ele>
        <time>2014-02-04T09:17:38Z</time>
      </trkpt>
      <trkpt lat="48.85369" lon="1.73829">
        <ele>115.98</ele>
        <time>2014-02-04T09:17:55Z</time>
      </trkpt>
      <trkpt lat="48.85383" lon="1.73795">
        <ele>114.05</ele>
        <time>2014-02-04T09:18:15Z</time>
      </trkpt>
      <trkpt lat="48.85388" lon="1.73761">
        <ele>115.98</ele>
        <time>2014-02-04T09:18:32Z</time>
      </trkpt>
      <trkpt lat="48.85377" lon="1.7373">
        <ele>117.9</ele>
        <time>2014-02-04T09:18:50Z</time>
      </trkpt>
      <trkpt lat="48.85367" lon="1.73707">
        <ele>117.9</ele>
        <time>2014-02-04T09:19:05Z</time>
      </trkpt>
      <trkpt lat="48.85366" lon="1.73706">
        <ele>118.86</ele>
        <time>2014-02-04T09:19:20Z</time>
      </trkpt>
      <trkpt lat="48.85362" lon="1.73697">
        <ele>120.78</ele>
        <time>2014-02-04T09:19:25Z</time>
      </trkpt>
      <trkpt lat="48.85357" lon="1.73685">
        <ele>121.26</ele>
        <time>2014-02-04T09:19:32Z</time>
      </trkpt>
      <trkpt lat="48.85351" lon="1.73675">
        <ele>120.78</ele>
        <time>2014-02-04T09:19:39Z</time>
      </trkpt>
      <trkpt lat="48.85351" lon="1.73668">
        <ele>120.3</ele>
        <time>2014-02-04T09:19:49Z</time>
      </trkpt>
      <trkpt lat="48.85351" lon="1.73657">
        <ele>118.86</ele>
        <time>2014-02-04T09:20:02Z</time>
      </trkpt>
      <trkpt lat="48.85352" lon="1.73658">
        <ele>118.86</ele>
        <time>2014-02-04T09:20:34Z</time>
      </trkpt>
      <trkpt lat="48.85351" lon="1.73656">
        <ele>118.86</ele>
        <time>2014-02-04T09:20:55Z</time>
      </trkpt>
      <trkpt lat="48.85344" lon="1.73634">
        <ele>119.82</ele>
        <time>2014-02-04T09:21:08Z</time>
      </trkpt>
      <trkpt lat="48.85337" lon="1.73623">
        <ele>119.82</ele>
        <time>2014-02-04T09:21:16Z</time>
      </trkpt>
      <trkpt lat="48.85327" lon="1.73593">
        <ele>120.3</ele>
        <time>2014-02-04T09:21:31Z</time>
      </trkpt>
      <trkpt lat="48.85315" lon="1.73573">
        <ele>117.42</ele>
        <time>2014-02-04T09:21:45Z</time>
      </trkpt>
      <trkpt lat="48.85303" lon="1.73556">
        <ele>115.5</ele>
        <time>2014-02-04T09:21:57Z</time>
      </trkpt>
      <trkpt lat="48.85292" lon="1.7354">
        <ele>114.05</ele>
        <time>2014-02-04T09:22:11Z</time>
      </trkpt>
      <trkpt lat="48.85276" lon="1.73522">
        <ele>115.01</ele>
        <time>2014-02-04T09:22:25Z</time>
      </trkpt>
      <trkpt lat="48.85258" lon="1.73501">
        <ele>112.61</ele>
        <time>2014-02-04T09:22:42Z</time>
      </trkpt>
      <trkpt lat="48.85234" lon="1.73482">
        <ele>113.09</ele>
        <time>2014-02-04T09:23:35Z</time>
      </trkpt>
      <trkpt lat="48.85247" lon="1.73485">
        <ele>113.09</ele>
        <time>2014-02-04T09:23:43Z</time>
      </trkpt>
      <trkpt lat="48.85266" lon="1.73475">
        <ele>114.05</ele>
        <time>2014-02-04T09:23:58Z</time>
      </trkpt>
      <trkpt lat="48.85283" lon="1.73462">
        <ele>112.61</ele>
        <time>2014-02-04T09:24:11Z</time>
      </trkpt>
      <trkpt lat="48.85288" lon="1.73432">
        <ele>112.13</ele>
        <time>2014-02-04T09:24:25Z</time>
      </trkpt>
      <trkpt lat="48.85286" lon="1.73406">
        <ele>113.57</ele>
        <time>2014-02-04T09:24:40Z</time>
      </trkpt>
      <trkpt lat="48.85291" lon="1.73372">
        <ele>113.57</ele>
        <time>2014-02-04T09:24:54Z</time>
      </trkpt>
      <trkpt lat="48.85296" lon="1.73351">
        <ele>111.17</ele>
        <time>2014-02-04T09:25:08Z</time>
      </trkpt>
      <trkpt lat="48.85297" lon="1.73349">
        <ele>110.69</ele>
        <time>2014-02-04T09:25:22Z</time>
      </trkpt>
      <trkpt lat="48.85297" lon="1.73347">
        <ele>112.13</ele>
        <time>2014-02-04T09:25:32Z</time>
      </trkpt>
      <trkpt lat="48.85302" lon="1.73319">
        <ele>111.17</ele>
        <time>2014-02-04T09:25:47Z</time>
      </trkpt>
      <trkpt lat="48.85302" lon="1.73317">
        <ele>111.17</ele>
        <time>2014-02-04T09:25:48Z</time>
      </trkpt>
      <trkpt lat="48.85302" lon="1.73306">
        <ele>111.17</ele>
        <time>2014-02-04T09:25:52Z</time>
      </trkpt>
      <trkpt lat="48.85313" lon="1.7327">
        <ele>109.73</ele>
        <time>2014-02-04T09:26:12Z</time>
      </trkpt>
      <trkpt lat="48.85318" lon="1.73242">
        <ele>109.73</ele>
        <time>2014-02-04T09:26:27Z</time>
      </trkpt>
      <trkpt lat="48.85326" lon="1.73202">
        <ele>110.69</ele>
        <time>2014-02-04T09:26:47Z</time>
      </trkpt>
      <trkpt lat="48.8533" lon="1.73178">
        <ele>109.73</ele>
        <time>2014-02-04T09:26:59Z</time>
      </trkpt>
      <trkpt lat="48.85337" lon="1.73143">
        <ele>108.77</ele>
        <time>2014-02-04T09:27:17Z</time>
      </trkpt>
      <trkpt lat="48.85339" lon="1.73128">
        <ele>108.29</ele>
        <time>2014-02-04T09:27:31Z</time>
      </trkpt>
      <trkpt lat="48.85339" lon="1.73125">
        <ele>108.29</ele>
        <time>2014-02-04T09:27:51Z</time>
      </trkpt>
      <trkpt lat="48.85341" lon="1.73111">
        <ele>108.77</ele>
        <time>2014-02-04T09:28:02Z</time>
      </trkpt>
      <trkpt lat="48.85342" lon="1.73103">
        <ele>108.29</ele>
        <time>2014-02-04T09:28:06Z</time>
      </trkpt>
      <trkpt lat="48.8535" lon="1.73063">
        <ele>107.32</ele>
        <time>2014-02-04T09:28:25Z</time>
      </trkpt>
      <trkpt lat="48.85358" lon="1.73022">
        <ele>104.92</ele>
        <time>2014-02-04T09:28:46Z</time>
      </trkpt>
      <trkpt lat="48.85362" lon="1.72991">
        <ele>105.4</ele>
        <time>2014-02-04T09:29:02Z</time>
      </trkpt>
      <trkpt lat="48.85368" lon="1.72969">
        <ele>104.92</ele>
        <time>2014-02-04T09:29:14Z</time>
      </trkpt>
      <trkpt lat="48.8537" lon="1.72959">
        <ele>104.92</ele>
        <time>2014-02-04T09:29:19Z</time>
      </trkpt>
      <trkpt lat="48.85375" lon="1.72929">
        <ele>105.88</ele>
        <time>2014-02-04T09:29:36Z</time>
      </trkpt>
      <trkpt lat="48.85376" lon="1.72927">
        <ele>105.88</ele>
        <time>2014-02-04T09:30:03Z</time>
      </trkpt>
      <trkpt lat="48.85379" lon="1.72908">
        <ele>105.88</ele>
        <time>2014-02-04T09:30:19Z</time>
      </trkpt>
      <trkpt lat="48.85387" lon="1.72864">
        <ele>107.32</ele>
        <time>2014-02-04T09:30:40Z</time>
      </trkpt>
      <trkpt lat="48.85391" lon="1.72834">
        <ele>107.32</ele>
        <time>2014-02-04T09:30:55Z</time>
      </trkpt>
      <trkpt lat="48.85395" lon="1.72805">
        <ele>106.36</ele>
        <time>2014-02-04T09:31:10Z</time>
      </trkpt>
      <trkpt lat="48.85393" lon="1.72794">
        <ele>106.84</ele>
        <time>2014-02-04T09:31:16Z</time>
      </trkpt>
      <trkpt lat="48.8539" lon="1.72771">
        <ele>107.81</ele>
        <time>2014-02-04T09:31:29Z</time>
      </trkpt>
      <trkpt lat="48.85386" lon="1.72738">
        <ele>108.77</ele>
        <time>2014-02-04T09:31:46Z</time>
      </trkpt>
      <trkpt lat="48.85381" lon="1.72711">
        <ele>109.25</ele>
        <time>2014-02-04T09:32:00Z</time>
      </trkpt>
      <trkpt lat="48.85378" lon="1.72692">
        <ele>107.81</ele>
        <time>2014-02-04T09:32:13Z</time>
      </trkpt>
      <trkpt lat="48.85374" lon="1.72676">
        <ele>107.81</ele>
        <time>2014-02-04T09:32:22Z</time>
      </trkpt>
      <trkpt lat="48.85373" lon="1.72654">
        <ele>106.36</ele>
        <time>2014-02-04T09:32:36Z</time>
      </trkpt>
      <trkpt lat="48.85371" lon="1.72635">
        <ele>106.84</ele>
        <time>2014-02-04T09:32:47Z</time>
      </trkpt>
      <trkpt lat="48.85369" lon="1.72611">
        <ele>107.32</ele>
        <time>2014-02-04T09:33:01Z</time>
      </trkpt>
      <trkpt lat="48.85365" lon="1.72594">
        <ele>109.25</ele>
        <time>2014-02-04T09:33:13Z</time>
      </trkpt>
      <trkpt lat="48.85363" lon="1.72584">
        <ele>109.73</ele>
        <time>2014-02-04T09:33:20Z</time>
      </trkpt>
      <trkpt lat="48.85365" lon="1.72554">
        <ele>109.73</ele>
        <time>2014-02-04T09:33:37Z</time>
      </trkpt>
      <trkpt lat="48.85363" lon="1.72532">
        <ele>113.57</ele>
        <time>2014-02-04T09:33:50Z</time>
      </trkpt>
      <trkpt lat="48.85359" lon="1.72524">
        <ele>114.53</ele>
        <time>2014-02-04T09:34:10Z</time>
      </trkpt>
      <trkpt lat="48.85355" lon="1.72519">
        <ele>113.09</ele>
        <time>2014-02-04T09:34:27Z</time>
      </trkpt>
      <trkpt lat="48.85356" lon="1.72502">
        <ele>111.17</ele>
        <time>2014-02-04T09:34:47Z</time>
      </trkpt>
      <trkpt lat="48.85361" lon="1.72469">
        <ele>109.73</ele>
        <time>2014-02-04T09:35:02Z</time>
      </trkpt>
      <trkpt lat="48.85362" lon="1.72436">
        <ele>110.69</ele>
        <time>2014-02-04T09:35:17Z</time>
      </trkpt>
      <trkpt lat="48.85362" lon="1.72405">
        <ele>109.73</ele>
        <time>2014-02-04T09:35:33Z</time>
      </trkpt>
      <trkpt lat="48.85366" lon="1.72381">
        <ele>106.36</ele>
        <time>2014-02-04T09:35:46Z</time>
      </trkpt>
      <trkpt lat="48.85366" lon="1.72379">
        <ele>105.4</ele>
        <time>2014-02-04T09:36:03Z</time>
      </trkpt>
      <trkpt lat="48.85366" lon="1.72368">
        <ele>104.44</ele>
        <time>2014-02-04T09:36:16Z</time>
      </trkpt>
      <trkpt lat="48.85367" lon="1.72359">
        <ele>104.92</ele>
        <time>2014-02-04T09:36:21Z</time>
      </trkpt>
      <trkpt lat="48.8537" lon="1.72354">
        <ele>103</ele>
        <time>2014-02-04T09:36:37Z</time>
      </trkpt>
      <trkpt lat="48.85369" lon="1.72352">
        <ele>103</ele>
        <time>2014-02-04T09:36:40Z</time>
      </trkpt>
      <trkpt lat="48.85368" lon="1.72348">
        <ele>102.52</ele>
        <time>2014-02-04T09:36:43Z</time>
      </trkpt>
      <trkpt lat="48.85362" lon="1.72343">
        <ele>103.48</ele>
        <time>2014-02-04T09:36:48Z</time>
      </trkpt>
      <trkpt lat="48.85358" lon="1.72336">
        <ele>103.48</ele>
        <time>2014-02-04T09:36:53Z</time>
      </trkpt>
      <trkpt lat="48.85352" lon="1.72327">
        <ele>103.48</ele>
        <time>2014-02-04T09:37:00Z</time>
      </trkpt>
      <trkpt lat="48.85341" lon="1.72311">
        <ele>103.96</ele>
        <time>2014-02-04T09:37:12Z</time>
      </trkpt>
      <trkpt lat="48.85323" lon="1.72286">
        <ele>102.52</ele>
        <time>2014-02-04T09:37:32Z</time>
      </trkpt>
      <trkpt lat="48.85307" lon="1.72265">
        <ele>99.63</ele>
        <time>2014-02-04T09:37:51Z</time>
      </trkpt>
      <trkpt lat="48.85288" lon="1.72241">
        <ele>99.15</ele>
        <time>2014-02-04T09:38:09Z</time>
      </trkpt>
      <trkpt lat="48.85273" lon="1.72224">
        <ele>100.6</ele>
        <time>2014-02-04T09:38:24Z</time>
      </trkpt>
      <trkpt lat="48.85266" lon="1.72211">
        <ele>99.63</ele>
        <time>2014-02-04T09:38:32Z</time>
      </trkpt>
      <trkpt lat="48.85255" lon="1.72196">
        <ele>99.15</ele>
        <time>2014-02-04T09:38:46Z</time>
      </trkpt>
      <trkpt lat="48.85248" lon="1.72185">
        <ele>97.23</ele>
        <time>2014-02-04T09:39:01Z</time>
      </trkpt>
      <trkpt lat="48.85229" lon="1.7216">
        <ele>98.19</ele>
        <time>2014-02-04T09:39:19Z</time>
      </trkpt>
      <trkpt lat="48.85214" lon="1.72139">
        <ele>95.31</ele>
        <time>2014-02-04T09:39:35Z</time>
      </trkpt>
      <trkpt lat="48.85204" lon="1.72127">
        <ele>93.87</ele>
        <time>2014-02-04T09:39:45Z</time>
      </trkpt>
      <trkpt lat="48.85197" lon="1.72121">
        <ele>94.83</ele>
        <time>2014-02-04T09:39:52Z</time>
      </trkpt>
      <trkpt lat="48.85183" lon="1.72103">
        <ele>95.79</ele>
        <time>2014-02-04T09:40:07Z</time>
      </trkpt>
      <trkpt lat="48.85189" lon="1.72071">
        <ele>94.83</ele>
        <time>2014-02-04T09:40:24Z</time>
      </trkpt>
      <trkpt lat="48.85199" lon="1.72048">
        <ele>92.9</ele>
        <time>2014-02-04T09:40:39Z</time>
      </trkpt>
      <trkpt lat="48.85206" lon="1.72019">
        <ele>89.54</ele>
        <time>2014-02-04T09:40:55Z</time>
      </trkpt>
      <trkpt lat="48.85208" lon="1.72011">
        <ele>89.06</ele>
        <time>2014-02-04T09:40:59Z</time>
      </trkpt>
      <trkpt lat="48.85213" lon="1.71983">
        <ele>90.02</ele>
        <time>2014-02-04T09:41:13Z</time>
      </trkpt>
      <trkpt lat="48.85215" lon="1.71977">
        <ele>90.02</ele>
        <time>2014-02-04T09:41:17Z</time>
      </trkpt>
      <trkpt lat="48.85223" lon="1.71961">
        <ele>90.5</ele>
        <time>2014-02-04T09:41:27Z</time>
      </trkpt>
      <trkpt lat="48.85225" lon="1.71951">
        <ele>91.46</ele>
        <time>2014-02-04T09:41:32Z</time>
      </trkpt>
      <trkpt lat="48.85237" lon="1.71924">
        <ele>92.9</ele>
        <time>2014-02-04T09:41:49Z</time>
      </trkpt>
      <trkpt lat="48.85244" lon="1.71908">
        <ele>93.39</ele>
        <time>2014-02-04T09:41:58Z</time>
      </trkpt>
      <trkpt lat="48.85257" lon="1.71884">
        <ele>91.94</ele>
        <time>2014-02-04T09:42:15Z</time>
      </trkpt>
      <trkpt lat="48.85272" lon="1.71854">
        <ele>91.94</ele>
        <time>2014-02-04T09:42:34Z</time>
      </trkpt>
      <trkpt lat="48.85284" lon="1.71828">
        <ele>91.94</ele>
        <time>2014-02-04T09:42:50Z</time>
      </trkpt>
      <trkpt lat="48.85297" lon="1.71802">
        <ele>92.42</ele>
        <time>2014-02-04T09:43:07Z</time>
      </trkpt>
      <trkpt lat="48.85315" lon="1.71769">
        <ele>92.9</ele>
        <time>2014-02-04T09:43:28Z</time>
      </trkpt>
      <trkpt lat="48.85328" lon="1.71741">
        <ele>93.39</ele>
        <time>2014-02-04T09:43:46Z</time>
      </trkpt>
      <trkpt lat="48.8534" lon="1.71707">
        <ele>96.75</ele>
        <time>2014-02-04T09:44:05Z</time>
      </trkpt>
      <trkpt lat="48.85351" lon="1.7168">
        <ele>97.71</ele>
        <time>2014-02-04T09:44:21Z</time>
      </trkpt>
      <trkpt lat="48.85361" lon="1.71657">
        <ele>98.19</ele>
        <time>2014-02-04T09:44:35Z</time>
      </trkpt>
      <trkpt lat="48.85373" lon="1.71621">
        <ele>98.67</ele>
        <time>2014-02-04T09:44:55Z</time>
      </trkpt>
      <trkpt lat="48.85384" lon="1.71591">
        <ele>97.71</ele>
        <time>2014-02-04T09:45:12Z</time>
      </trkpt>
      <trkpt lat="48.85397" lon="1.71557">
        <ele>97.23</ele>
        <time>2014-02-04T09:45:31Z</time>
      </trkpt>
      <trkpt lat="48.85409" lon="1.71527">
        <ele>99.15</ele>
        <time>2014-02-04T09:45:48Z</time>
      </trkpt>
      <trkpt lat="48.85424" lon="1.71495">
        <ele>101.08</ele>
        <time>2014-02-04T09:46:08Z</time>
      </trkpt>
      <trkpt lat="48.8544" lon="1.71472">
        <ele>99.63</ele>
        <time>2014-02-04T09:46:26Z</time>
      </trkpt>
      <trkpt lat="48.85449" lon="1.71456">
        <ele>98.19</ele>
        <time>2014-02-04T09:46:41Z</time>
      </trkpt>
      <trkpt lat="48.85452" lon="1.71449">
        <ele>97.71</ele>
        <time>2014-02-04T09:46:48Z</time>
      </trkpt>
      <trkpt lat="48.8544" lon="1.71456">
        <ele>98.67</ele>
        <time>2014-02-04T09:47:01Z</time>
      </trkpt>
      <trkpt lat="48.85424" lon="1.71472">
        <ele>98.19</ele>
        <time>2014-02-04T09:47:17Z</time>
      </trkpt>
      <trkpt lat="48.85417" lon="1.71475">
        <ele>98.19</ele>
        <time>2014-02-04T09:47:24Z</time>
      </trkpt>
      <trkpt lat="48.85406" lon="1.71487">
        <ele>97.23</ele>
        <time>2014-02-04T09:47:35Z</time>
      </trkpt>
      <trkpt lat="48.85393" lon="1.71502">
        <ele>96.75</ele>
        <time>2014-02-04T09:47:49Z</time>
      </trkpt>
      <trkpt lat="48.85377" lon="1.71518">
        <ele>96.27</ele>
        <time>2014-02-04T09:48:05Z</time>
      </trkpt>
      <trkpt lat="48.85359" lon="1.7153">
        <ele>97.23</ele>
        <time>2014-02-04T09:48:21Z</time>
      </trkpt>
      <trkpt lat="48.85343" lon="1.7154">
        <ele>95.79</ele>
        <time>2014-02-04T09:48:35Z</time>
      </trkpt>
      <trkpt lat="48.85334" lon="1.71543">
        <ele>92.9</ele>
        <time>2014-02-04T09:48:43Z</time>
      </trkpt>
      <trkpt lat="48.85313" lon="1.71547">
        <ele>90.5</ele>
        <time>2014-02-04T09:49:00Z</time>
      </trkpt>
      <trkpt lat="48.85306" lon="1.71551">
        <ele>91.94</ele>
        <time>2014-02-04T09:49:18Z</time>
      </trkpt>
      <trkpt lat="48.85301" lon="1.71551">
        <ele>91.46</ele>
        <time>2014-02-04T09:49:25Z</time>
      </trkpt>
      <trkpt lat="48.85297" lon="1.71549">
        <ele>92.9</ele>
        <time>2014-02-04T09:49:38Z</time>
      </trkpt>
      <trkpt lat="48.85292" lon="1.71548">
        <ele>93.39</ele>
        <time>2014-02-04T09:50:03Z</time>
      </trkpt>
      <trkpt lat="48.8529" lon="1.71548">
        <ele>93.39</ele>
        <time>2014-02-04T09:50:14Z</time>
      </trkpt>
      <trkpt lat="48.85283" lon="1.71551">
        <ele>93.87</ele>
        <time>2014-02-04T09:50:28Z</time>
      </trkpt>
      <trkpt lat="48.85282" lon="1.71552">
        <ele>94.35</ele>
        <time>2014-02-04T09:50:31Z</time>
      </trkpt>
      <trkpt lat="48.85277" lon="1.71551">
        <ele>94.35</ele>
        <time>2014-02-04T09:50:40Z</time>
      </trkpt>
      <trkpt lat="48.85272" lon="1.71549">
        <ele>93.87</ele>
        <time>2014-02-04T09:50:44Z</time>
      </trkpt>
      <trkpt lat="48.85256" lon="1.71548">
        <ele>92.9</ele>
        <time>2014-02-04T09:50:58Z</time>
      </trkpt>
      <trkpt lat="48.85248" lon="1.71546">
        <ele>92.9</ele>
        <time>2014-02-04T09:51:04Z</time>
      </trkpt>
      <trkpt lat="48.85226" lon="1.71543">
        <ele>92.9</ele>
        <time>2014-02-04T09:51:23Z</time>
      </trkpt>
      <trkpt lat="48.85222" lon="1.71543">
        <ele>93.87</ele>
        <time>2014-02-04T09:51:26Z</time>
      </trkpt>
      <trkpt lat="48.85214" lon="1.71544">
        <ele>96.27</ele>
        <time>2014-02-04T09:51:33Z</time>
      </trkpt>
      <trkpt lat="48.85194" lon="1.7154">
        <ele>95.79</ele>
        <time>2014-02-04T09:51:49Z</time>
      </trkpt>
      <trkpt lat="48.85175" lon="1.71535">
        <ele>93.39</ele>
        <time>2014-02-04T09:52:08Z</time>
      </trkpt>
      <trkpt lat="48.85166" lon="1.71534">
        <ele>93.87</ele>
        <time>2014-02-04T09:52:15Z</time>
      </trkpt>
      <trkpt lat="48.85147" lon="1.71538">
        <ele>94.83</ele>
        <time>2014-02-04T09:52:31Z</time>
      </trkpt>
      <trkpt lat="48.85128" lon="1.71536">
        <ele>97.23</ele>
        <time>2014-02-04T09:52:48Z</time>
      </trkpt>
      <trkpt lat="48.85108" lon="1.71531">
        <ele>100.11</ele>
        <time>2014-02-04T09:53:05Z</time>
      </trkpt>
      <trkpt lat="48.85088" lon="1.71525">
        <ele>101.08</ele>
        <time>2014-02-04T09:53:21Z</time>
      </trkpt>
      <trkpt lat="48.85082" lon="1.71524">
        <ele>101.08</ele>
        <time>2014-02-04T09:53:26Z</time>
      </trkpt>
      <trkpt lat="48.85076" lon="1.71522">
        <ele>100.6</ele>
        <time>2014-02-04T09:53:31Z</time>
      </trkpt>
      <trkpt lat="48.85064" lon="1.71519">
        <ele>99.63</ele>
        <time>2014-02-04T09:53:41Z</time>
      </trkpt>
      <trkpt lat="48.85052" lon="1.71515">
        <ele>101.08</ele>
        <time>2014-02-04T09:53:51Z</time>
      </trkpt>
      <trkpt lat="48.8503" lon="1.71507">
        <ele>102.04</ele>
        <time>2014-02-04T09:54:09Z</time>
      </trkpt>
      <trkpt lat="48.85008" lon="1.71499">
        <ele>102.52</ele>
        <time>2014-02-04T09:54:28Z</time>
      </trkpt>
      <trkpt lat="48.8499" lon="1.71492">
        <ele>102.52</ele>
        <time>2014-02-04T09:54:43Z</time>
      </trkpt>
      <trkpt lat="48.84969" lon="1.71482">
        <ele>100.6</ele>
        <time>2014-02-04T09:55:01Z</time>
      </trkpt>
      <trkpt lat="48.8495" lon="1.71472">
        <ele>100.6</ele>
        <time>2014-02-04T09:55:17Z</time>
      </trkpt>
      <trkpt lat="48.84926" lon="1.71455">
        <ele>101.56</ele>
        <time>2014-02-04T09:55:37Z</time>
      </trkpt>
      <trkpt lat="48.84908" lon="1.71443">
        <ele>101.56</ele>
        <time>2014-02-04T09:55:54Z</time>
      </trkpt>
      <trkpt lat="48.84893" lon="1.71427">
        <ele>100.6</ele>
        <time>2014-02-04T09:56:09Z</time>
      </trkpt>
      <trkpt lat="48.8489" lon="1.71427">
        <ele>100.11</ele>
        <time>2014-02-04T09:56:29Z</time>
      </trkpt>
      <trkpt lat="48.84873" lon="1.71414">
        <ele>100.6</ele>
        <time>2014-02-04T09:56:44Z</time>
      </trkpt>
      <trkpt lat="48.8485" lon="1.71393">
        <ele>99.15</ele>
        <time>2014-02-04T09:57:06Z</time>
      </trkpt>
      <trkpt lat="48.84831" lon="1.71375">
        <ele>100.6</ele>
        <time>2014-02-04T09:57:25Z</time>
      </trkpt>
      <trkpt lat="48.84808" lon="1.71356">
        <ele>102.04</ele>
        <time>2014-02-04T09:57:46Z</time>
      </trkpt>
      <trkpt lat="48.84785" lon="1.71344">
        <ele>101.56</ele>
        <time>2014-02-04T09:58:05Z</time>
      </trkpt>
      <trkpt lat="48.84762" lon="1.71334">
        <ele>102.52</ele>
        <time>2014-02-04T09:58:25Z</time>
      </trkpt>
      <trkpt lat="48.84739" lon="1.71326">
        <ele>102.04</ele>
        <time>2014-02-04T09:58:44Z</time>
      </trkpt>
      <trkpt lat="48.84716" lon="1.71319">
        <ele>103</ele>
        <time>2014-02-04T09:59:03Z</time>
      </trkpt>
      <trkpt lat="48.84696" lon="1.71315">
        <ele>102.52</ele>
        <time>2014-02-04T09:59:20Z</time>
      </trkpt>
      <trkpt lat="48.84676" lon="1.71311">
        <ele>102.04</ele>
        <time>2014-02-04T09:59:35Z</time>
      </trkpt>
      <trkpt lat="48.84671" lon="1.7131">
        <ele>102.04</ele>
        <time>2014-02-04T09:59:39Z</time>
      </trkpt>
      <trkpt lat="48.84662" lon="1.71309">
        <ele>102.52</ele>
        <time>2014-02-04T09:59:47Z</time>
      </trkpt>
      <trkpt lat="48.84656" lon="1.71308">
        <ele>103</ele>
        <time>2014-02-04T09:59:52Z</time>
      </trkpt>
      <trkpt lat="48.84642" lon="1.71306">
        <ele>103.48</ele>
        <time>2014-02-04T10:00:07Z</time>
      </trkpt>
      <trkpt lat="48.84622" lon="1.71306">
        <ele>103.48</ele>
        <time>2014-02-04T10:00:23Z</time>
      </trkpt>
      <trkpt lat="48.84597" lon="1.71309">
        <ele>103</ele>
        <time>2014-02-04T10:00:43Z</time>
      </trkpt>
      <trkpt lat="48.84575" lon="1.71315">
        <ele>103</ele>
        <time>2014-02-04T10:01:02Z</time>
      </trkpt>
      <trkpt lat="48.84548" lon="1.71317">
        <ele>104.44</ele>
        <time>2014-02-04T10:01:23Z</time>
      </trkpt>
      <trkpt lat="48.84525" lon="1.71314">
        <ele>104.92</ele>
        <time>2014-02-04T10:01:40Z</time>
      </trkpt>
      <trkpt lat="48.84502" lon="1.71309">
        <ele>105.4</ele>
        <time>2014-02-04T10:02:00Z</time>
      </trkpt>
      <trkpt lat="48.84479" lon="1.71302">
        <ele>105.4</ele>
        <time>2014-02-04T10:02:18Z</time>
      </trkpt>
      <trkpt lat="48.84462" lon="1.71296">
        <ele>104.92</ele>
        <time>2014-02-04T10:02:36Z</time>
      </trkpt>
      <trkpt lat="48.8444" lon="1.71287">
        <ele>100.6</ele>
        <time>2014-02-04T10:02:56Z</time>
      </trkpt>
      <trkpt lat="48.84421" lon="1.71277">
        <ele>99.63</ele>
        <time>2014-02-04T10:03:12Z</time>
      </trkpt>
      <trkpt lat="48.84414" lon="1.71273">
        <ele>99.15</ele>
        <time>2014-02-04T10:03:18Z</time>
      </trkpt>
      <trkpt lat="48.84394" lon="1.71265">
        <ele>97.71</ele>
        <time>2014-02-04T10:03:33Z</time>
      </trkpt>
      <trkpt lat="48.8438" lon="1.71258">
        <ele>99.15</ele>
        <time>2014-02-04T10:03:45Z</time>
      </trkpt>
      <trkpt lat="48.84356" lon="1.71242">
        <ele>98.19</ele>
        <time>2014-02-04T10:04:06Z</time>
      </trkpt>
      <trkpt lat="48.84339" lon="1.7123">
        <ele>97.23</ele>
        <time>2014-02-04T10:04:23Z</time>
      </trkpt>
      <trkpt lat="48.84321" lon="1.7122">
        <ele>100.6</ele>
        <time>2014-02-04T10:04:38Z</time>
      </trkpt>
      <trkpt lat="48.84304" lon="1.71193">
        <ele>100.11</ele>
        <time>2014-02-04T10:04:58Z</time>
      </trkpt>
      <trkpt lat="48.84286" lon="1.71172">
        <ele>99.15</ele>
        <time>2014-02-04T10:05:16Z</time>
      </trkpt>
      <trkpt lat="48.84273" lon="1.71157">
        <ele>98.67</ele>
        <time>2014-02-04T10:05:30Z</time>
      </trkpt>
      <trkpt lat="48.84254" lon="1.71138">
        <ele>98.19</ele>
        <time>2014-02-04T10:05:50Z</time>
      </trkpt>
      <trkpt lat="48.84235" lon="1.71124">
        <ele>99.15</ele>
        <time>2014-02-04T10:06:06Z</time>
      </trkpt>
      <trkpt lat="48.84215" lon="1.71111">
        <ele>100.11</ele>
        <time>2014-02-04T10:06:24Z</time>
      </trkpt>
      <trkpt lat="48.84193" lon="1.71104">
        <ele>100.6</ele>
        <time>2014-02-04T10:06:43Z</time>
      </trkpt>
      <trkpt lat="48.8417" lon="1.71093">
        <ele>100.11</ele>
        <time>2014-02-04T10:07:01Z</time>
      </trkpt>
      <trkpt lat="48.84151" lon="1.71086">
        <ele>99.15</ele>
        <time>2014-02-04T10:07:17Z</time>
      </trkpt>
      <trkpt lat="48.84116" lon="1.71073">
        <ele>99.15</ele>
        <time>2014-02-04T10:07:44Z</time>
      </trkpt>
      <trkpt lat="48.84091" lon="1.71065">
        <ele>99.63</ele>
        <time>2014-02-04T10:08:03Z</time>
      </trkpt>
      <trkpt lat="48.84068" lon="1.71058">
        <ele>101.08</ele>
        <time>2014-02-04T10:08:21Z</time>
      </trkpt>
      <trkpt lat="48.84044" lon="1.71048">
        <ele>100.11</ele>
        <time>2014-02-04T10:08:39Z</time>
      </trkpt>
      <trkpt lat="48.84023" lon="1.71035">
        <ele>101.56</ele>
        <time>2014-02-04T10:08:57Z</time>
      </trkpt>
      <trkpt lat="48.83997" lon="1.7102">
        <ele>101.08</ele>
        <time>2014-02-04T10:09:17Z</time>
      </trkpt>
      <trkpt lat="48.83976" lon="1.71006">
        <ele>102.04</ele>
        <time>2014-02-04T10:09:36Z</time>
      </trkpt>
      <trkpt lat="48.83965" lon="1.70996">
        <ele>102.04</ele>
        <time>2014-02-04T10:09:46Z</time>
      </trkpt>
      <trkpt lat="48.83942" lon="1.70977">
        <ele>100.6</ele>
        <time>2014-02-04T10:10:06Z</time>
      </trkpt>
      <trkpt lat="48.83921" lon="1.70957">
        <ele>101.08</ele>
        <time>2014-02-04T10:10:25Z</time>
      </trkpt>
      <trkpt lat="48.83899" lon="1.70937">
        <ele>106.84</ele>
        <time>2014-02-04T10:10:44Z</time>
      </trkpt>
      <trkpt lat="48.8388" lon="1.70919">
        <ele>104.92</ele>
        <time>2014-02-04T10:11:02Z</time>
      </trkpt>
      <trkpt lat="48.83861" lon="1.70899">
        <ele>105.4</ele>
        <time>2014-02-04T10:11:21Z</time>
      </trkpt>
      <trkpt lat="48.83845" lon="1.70885">
        <ele>103.96</ele>
        <time>2014-02-04T10:11:36Z</time>
      </trkpt>
      <trkpt lat="48.83828" lon="1.70871">
        <ele>102.04</ele>
        <time>2014-02-04T10:11:55Z</time>
      </trkpt>
      <trkpt lat="48.83827" lon="1.70871">
        <ele>102.52</ele>
        <time>2014-02-04T10:12:17Z</time>
      </trkpt>
      <trkpt lat="48.83809" lon="1.70853">
        <ele>103.48</ele>
        <time>2014-02-04T10:12:35Z</time>
      </trkpt>
      <trkpt lat="48.83787" lon="1.70836">
        <ele>102.04</ele>
        <time>2014-02-04T10:12:54Z</time>
      </trkpt>
      <trkpt lat="48.83761" lon="1.70821">
        <ele>106.84</ele>
        <time>2014-02-04T10:13:15Z</time>
      </trkpt>
      <trkpt lat="48.83743" lon="1.7081">
        <ele>106.36</ele>
        <time>2014-02-04T10:13:31Z</time>
      </trkpt>
      <trkpt lat="48.83724" lon="1.708">
        <ele>107.81</ele>
        <time>2014-02-04T10:13:47Z</time>
      </trkpt>
      <trkpt lat="48.83698" lon="1.70789">
        <ele>109.25</ele>
        <time>2014-02-04T10:14:08Z</time>
      </trkpt>
      <trkpt lat="48.83674" lon="1.70776">
        <ele>108.29</ele>
        <time>2014-02-04T10:14:27Z</time>
      </trkpt>
      <trkpt lat="48.83648" lon="1.70765">
        <ele>106.84</ele>
        <time>2014-02-04T10:14:49Z</time>
      </trkpt>
      <trkpt lat="48.83625" lon="1.70758">
        <ele>105.4</ele>
        <time>2014-02-04T10:15:08Z</time>
      </trkpt>
      <trkpt lat="48.83599" lon="1.7075">
        <ele>105.88</ele>
        <time>2014-02-04T10:15:28Z</time>
      </trkpt>
      <trkpt lat="48.83591" lon="1.70749">
        <ele>106.36</ele>
        <time>2014-02-04T10:15:35Z</time>
      </trkpt>
      <trkpt lat="48.83565" lon="1.70749">
        <ele>106.36</ele>
        <time>2014-02-04T10:15:55Z</time>
      </trkpt>
      <trkpt lat="48.8354" lon="1.70739">
        <ele>107.32</ele>
        <time>2014-02-04T10:16:15Z</time>
      </trkpt>
      <trkpt lat="48.83536" lon="1.70736">
        <ele>107.32</ele>
        <time>2014-02-04T10:16:19Z</time>
      </trkpt>
      <trkpt lat="48.8353" lon="1.70733">
        <ele>107.81</ele>
        <time>2014-02-04T10:16:25Z</time>
      </trkpt>
      <trkpt lat="48.83505" lon="1.70722">
        <ele>106.36</ele>
        <time>2014-02-04T10:16:45Z</time>
      </trkpt>
      <trkpt lat="48.83481" lon="1.70708">
        <ele>108.77</ele>
        <time>2014-02-04T10:17:07Z</time>
      </trkpt>
      <trkpt lat="48.83462" lon="1.70694">
        <ele>112.61</ele>
        <time>2014-02-04T10:17:25Z</time>
      </trkpt>
      <trkpt lat="48.83447" lon="1.70687">
        <ele>111.17</ele>
        <time>2014-02-04T10:17:39Z</time>
      </trkpt>
      <trkpt lat="48.83436" lon="1.70674">
        <ele>108.77</ele>
        <time>2014-02-04T10:17:51Z</time>
      </trkpt>
      <trkpt lat="48.83416" lon="1.70664">
        <ele>109.25</ele>
        <time>2014-02-04T10:18:09Z</time>
      </trkpt>
      <trkpt lat="48.83398" lon="1.70654">
        <ele>108.77</ele>
        <time>2014-02-04T10:18:26Z</time>
      </trkpt>
      <trkpt lat="48.83384" lon="1.70646">
        <ele>109.25</ele>
        <time>2014-02-04T10:18:43Z</time>
      </trkpt>
      <trkpt lat="48.83384" lon="1.70646">
        <ele>110.69</ele>
        <time>2014-02-04T10:19:13Z</time>
      </trkpt>
      <trkpt lat="48.83377" lon="1.70642">
        <ele>110.21</ele>
        <time>2014-02-04T10:19:31Z</time>
      </trkpt>
      <trkpt lat="48.83358" lon="1.70636">
        <ele>110.21</ele>
        <time>2014-02-04T10:19:46Z</time>
      </trkpt>
      <trkpt lat="48.83338" lon="1.70625">
        <ele>109.73</ele>
        <time>2014-02-04T10:20:05Z</time>
      </trkpt>
      <trkpt lat="48.83312" lon="1.70611">
        <ele>110.21</ele>
        <time>2014-02-04T10:20:26Z</time>
      </trkpt>
      <trkpt lat="48.83288" lon="1.70599">
        <ele>107.81</ele>
        <time>2014-02-04T10:20:46Z</time>
      </trkpt>
      <trkpt lat="48.83269" lon="1.70587">
        <ele>107.32</ele>
        <time>2014-02-04T10:21:03Z</time>
      </trkpt>
      <trkpt lat="48.83251" lon="1.70579">
        <ele>109.25</ele>
        <time>2014-02-04T10:21:18Z</time>
      </trkpt>
      <trkpt lat="48.83226" lon="1.70564">
        <ele>109.73</ele>
        <time>2014-02-04T10:21:39Z</time>
      </trkpt>
      <trkpt lat="48.83222" lon="1.70562">
        <ele>109.25</ele>
        <time>2014-02-04T10:21:43Z</time>
      </trkpt>
      <trkpt lat="48.83215" lon="1.70559">
        <ele>110.21</ele>
        <time>2014-02-04T10:21:49Z</time>
      </trkpt>
      <trkpt lat="48.83191" lon="1.70545">
        <ele>110.21</ele>
        <time>2014-02-04T10:22:10Z</time>
      </trkpt>
      <trkpt lat="48.8317" lon="1.70537">
        <ele>111.65</ele>
        <time>2014-02-04T10:22:28Z</time>
      </trkpt>
      <trkpt lat="48.83147" lon="1.70527">
        <ele>115.01</ele>
        <time>2014-02-04T10:22:48Z</time>
      </trkpt>
      <trkpt lat="48.83124" lon="1.70513">
        <ele>115.01</ele>
        <time>2014-02-04T10:23:07Z</time>
      </trkpt>
      <trkpt lat="48.83101" lon="1.705">
        <ele>113.09</ele>
        <time>2014-02-04T10:23:29Z</time>
      </trkpt>
      <trkpt lat="48.83084" lon="1.70491">
        <ele>113.09</ele>
        <time>2014-02-04T10:23:46Z</time>
      </trkpt>
      <trkpt lat="48.83063" lon="1.70479">
        <ele>113.57</ele>
        <time>2014-02-04T10:24:07Z</time>
      </trkpt>
      <trkpt lat="48.83044" lon="1.70474">
        <ele>115.98</ele>
        <time>2014-02-04T10:24:23Z</time>
      </trkpt>
      <trkpt lat="48.83043" lon="1.70474">
        <ele>116.46</ele>
        <time>2014-02-04T10:24:24Z</time>
      </trkpt>
      <trkpt lat="48.83039" lon="1.70469">
        <ele>116.46</ele>
        <time>2014-02-04T10:24:28Z</time>
      </trkpt>
      <trkpt lat="48.83015" lon="1.70453">
        <ele>115.98</ele>
        <time>2014-02-04T10:24:49Z</time>
      </trkpt>
      <trkpt lat="48.82991" lon="1.70441">
        <ele>119.82</ele>
        <time>2014-02-04T10:25:10Z</time>
      </trkpt>
      <trkpt lat="48.82972" lon="1.7043">
        <ele>120.78</ele>
        <time>2014-02-04T10:25:27Z</time>
      </trkpt>
      <trkpt lat="48.82951" lon="1.70419">
        <ele>119.82</ele>
        <time>2014-02-04T10:25:45Z</time>
      </trkpt>
      <trkpt lat="48.82929" lon="1.70407">
        <ele>119.82</ele>
        <time>2014-02-04T10:26:05Z</time>
      </trkpt>
      <trkpt lat="48.82907" lon="1.70379">
        <ele>123.19</ele>
        <time>2014-02-04T10:26:29Z</time>
      </trkpt>
      <trkpt lat="48.82893" lon="1.7036">
        <ele>124.63</ele>
        <time>2014-02-04T10:26:46Z</time>
      </trkpt>
      <trkpt lat="48.8289" lon="1.70347">
        <ele>123.19</ele>
        <time>2014-02-04T10:27:01Z</time>
      </trkpt>
      <trkpt lat="48.8291" lon="1.70311">
        <ele>121.26</ele>
        <time>2014-02-04T10:27:24Z</time>
      </trkpt>
      <trkpt lat="48.82908" lon="1.70304">
        <ele>119.82</ele>
        <time>2014-02-04T10:27:37Z</time>
      </trkpt>
      <trkpt lat="48.82924" lon="1.70282">
        <ele>120.78</ele>
        <time>2014-02-04T10:27:53Z</time>
      </trkpt>
      <trkpt lat="48.82929" lon="1.70267">
        <ele>120.3</ele>
        <time>2014-02-04T10:28:07Z</time>
      </trkpt>
      <trkpt lat="48.82906" lon="1.70259">
        <ele>114.53</ele>
        <time>2014-02-04T10:28:28Z</time>
      </trkpt>
      <trkpt lat="48.82887" lon="1.70246">
        <ele>112.13</ele>
        <time>2014-02-04T10:28:43Z</time>
      </trkpt>
      <trkpt lat="48.82872" lon="1.70246">
        <ele>112.61</ele>
        <time>2014-02-04T10:29:01Z</time>
      </trkpt>
      <trkpt lat="48.8287" lon="1.7024">
        <ele>113.57</ele>
        <time>2014-02-04T10:29:18Z</time>
      </trkpt>
      <trkpt lat="48.82866" lon="1.70238">
        <ele>114.05</ele>
        <time>2014-02-04T10:29:35Z</time>
      </trkpt>
      <trkpt lat="48.82866" lon="1.70237">
        <ele>117.9</ele>
        <time>2014-02-04T10:30:13Z</time>
      </trkpt>
      <trkpt lat="48.82867" lon="1.7024">
        <ele>118.86</ele>
        <time>2014-02-04T10:30:37Z</time>
      </trkpt>
      <trkpt lat="48.82868" lon="1.70262">
        <ele>117.42</ele>
        <time>2014-02-04T10:30:59Z</time>
      </trkpt>
      <trkpt lat="48.82868" lon="1.70269">
        <ele>116.46</ele>
        <time>2014-02-04T10:31:19Z</time>
      </trkpt>
      <trkpt lat="48.82865" lon="1.7029">
        <ele>116.94</ele>
        <time>2014-02-04T10:31:33Z</time>
      </trkpt>
      <trkpt lat="48.82861" lon="1.70302">
        <ele>116.46</ele>
        <time>2014-02-04T10:31:50Z</time>
      </trkpt>
      <trkpt lat="48.82859" lon="1.70317">
        <ele>115.5</ele>
        <time>2014-02-04T10:32:06Z</time>
      </trkpt>
      <trkpt lat="48.82857" lon="1.70324">
        <ele>116.46</ele>
        <time>2014-02-04T10:32:23Z</time>
      </trkpt>
      <trkpt lat="48.82858" lon="1.70324">
        <ele>116.94</ele>
        <time>2014-02-04T10:32:52Z</time>
      </trkpt>
      <trkpt lat="48.82855" lon="1.70334">
        <ele>116.94</ele>
        <time>2014-02-04T10:33:06Z</time>
      </trkpt>
      <trkpt lat="48.82856" lon="1.70337">
        <ele>117.42</ele>
        <time>2014-02-04T10:33:29Z</time>
      </trkpt>
      <trkpt lat="48.82852" lon="1.70352">
        <ele>119.34</ele>
        <time>2014-02-04T10:33:39Z</time>
      </trkpt>
      <trkpt lat="48.82846" lon="1.70356">
        <ele>118.86</ele>
        <time>2014-02-04T10:33:45Z</time>
      </trkpt>
      <trkpt lat="48.82819" lon="1.70348">
        <ele>120.78</ele>
        <time>2014-02-04T10:34:07Z</time>
      </trkpt>
      <trkpt lat="48.82794" lon="1.70335">
        <ele>118.38</ele>
        <time>2014-02-04T10:34:29Z</time>
      </trkpt>
      <trkpt lat="48.8277" lon="1.70318">
        <ele>119.34</ele>
        <time>2014-02-04T10:34:51Z</time>
      </trkpt>
      <trkpt lat="48.82747" lon="1.70306">
        <ele>121.26</ele>
        <time>2014-02-04T10:35:10Z</time>
      </trkpt>
      <trkpt lat="48.82726" lon="1.70286">
        <ele>123.67</ele>
        <time>2014-02-04T10:35:32Z</time>
      </trkpt>
      <trkpt lat="48.82704" lon="1.70273">
        <ele>122.71</ele>
        <time>2014-02-04T10:35:51Z</time>
      </trkpt>
      <trkpt lat="48.82701" lon="1.70272">
        <ele>122.71</ele>
        <time>2014-02-04T10:35:54Z</time>
      </trkpt>
      <trkpt lat="48.82696" lon="1.70273">
        <ele>122.71</ele>
        <time>2014-02-04T10:35:58Z</time>
      </trkpt>
      <trkpt lat="48.8268" lon="1.70286">
        <ele>120.3</ele>
        <time>2014-02-04T10:36:15Z</time>
      </trkpt>
      <trkpt lat="48.82676" lon="1.70282">
        <ele>119.34</ele>
        <time>2014-02-04T10:36:30Z</time>
      </trkpt>
      <trkpt lat="48.82676" lon="1.7028">
        <ele>119.82</ele>
        <time>2014-02-04T10:36:32Z</time>
      </trkpt>
      <trkpt lat="48.82674" lon="1.70275">
        <ele>120.3</ele>
        <time>2014-02-04T10:36:35Z</time>
      </trkpt>
      <trkpt lat="48.82675" lon="1.70269">
        <ele>121.26</ele>
        <time>2014-02-04T10:36:50Z</time>
      </trkpt>
      <trkpt lat="48.82668" lon="1.70266">
        <ele>121.26</ele>
        <time>2014-02-04T10:37:25Z</time>
      </trkpt>
      <trkpt lat="48.82668" lon="1.70265">
        <ele>121.26</ele>
        <time>2014-02-04T10:37:26Z</time>
      </trkpt>
      <trkpt lat="48.82671" lon="1.70266">
        <ele>122.22</ele>
        <time>2014-02-04T10:37:47Z</time>
      </trkpt>
      <trkpt lat="48.82674" lon="1.7027">
        <ele>121.26</ele>
        <time>2014-02-04T10:38:15Z</time>
      </trkpt>
      <trkpt lat="48.82681" lon="1.70267">
        <ele>123.19</ele>
        <time>2014-02-04T10:38:26Z</time>
      </trkpt>
      <trkpt lat="48.82678" lon="1.70266">
        <ele>124.15</ele>
        <time>2014-02-04T10:38:49Z</time>
      </trkpt>
      <trkpt lat="48.82674" lon="1.70267">
        <ele>123.19</ele>
        <time>2014-02-04T10:39:09Z</time>
      </trkpt>
      <trkpt lat="48.82674" lon="1.7027">
        <ele>125.11</ele>
        <time>2014-02-04T10:39:37Z</time>
      </trkpt>
      <trkpt lat="48.82674" lon="1.7027">
        <ele>124.63</ele>
        <time>2014-02-04T10:40:04Z</time>
      </trkpt>
      <trkpt lat="48.82674" lon="1.70271">
        <ele>123.67</ele>
        <time>2014-02-04T10:40:33Z</time>
      </trkpt>
      <trkpt lat="48.82675" lon="1.7027">
        <ele>122.22</ele>
        <time>2014-02-04T10:40:53Z</time>
      </trkpt>
      <trkpt lat="48.82675" lon="1.70271">
        <ele>121.74</ele>
        <time>2014-02-04T10:41:18Z</time>
      </trkpt>
      <trkpt lat="48.82677" lon="1.70272">
        <ele>121.74</ele>
        <time>2014-02-04T10:41:43Z</time>
      </trkpt>
      <trkpt lat="48.8268" lon="1.70276">
        <ele>121.74</ele>
        <time>2014-02-04T10:41:48Z</time>
      </trkpt>
      <trkpt lat="48.82676" lon="1.70279">
        <ele>120.78</ele>
        <time>2014-02-04T10:42:05Z</time>
      </trkpt>
      <trkpt lat="48.82675" lon="1.70278">
        <ele>121.26</ele>
        <time>2014-02-04T10:42:24Z</time>
      </trkpt>
      <trkpt lat="48.82675" lon="1.70278">
        <ele>121.26</ele>
        <time>2014-02-04T10:42:52Z</time>
      </trkpt>
      <trkpt lat="48.82678" lon="1.70286">
        <ele>119.82</ele>
        <time>2014-02-04T10:43:08Z</time>
      </trkpt>
      <trkpt lat="48.82678" lon="1.70286">
        <ele>119.82</ele>
        <time>2014-02-04T10:43:10Z</time>
      </trkpt>
    </trkseg>
  </trk>
</gpx>